<?xml version="1.0" encoding="UTF-8" standalone="no" ?>
<gpx xmlns="http://www.topografix.com/GPX/1/1" xmlns:xsi="http://www.w3.org/2001/XMLSchema-instance" xsi:schemaLocation="http://www.topografix.com/GPX/1/1 http://www.topografix.com/GPX/1/1/gpx.xsd" version="1.1" creator="VisuGPX - https://www.visugpx.com">
  <metadata>
    <name>Ultra Trail Puy Mary Aurillac 2020 - UTPMA - Trail d'Aurillac sur TraceDeTrail.fr</name>
  </metadata>
  <trk>
    <name><![CDATA[Ultra Trail Puy Mary Aurillac 2020 - UTPMA - Trail d'Aurillac sur TraceDeTrail.fr]]></name>
    <trkseg>
      <trkpt lat="44.9248" lon="2.44162">
        <ele>616</ele>
        <time>2000-01-01T02:45:20.000Z</time>
      </trkpt>
      <trkpt lat="44.92501" lon="2.44154">
        <ele>617</ele>
        <time>2000-01-01T02:45:30.000Z</time>
      </trkpt>
      <trkpt lat="44.92518" lon="2.44158">
        <ele>617.6</ele>
        <time>2000-01-01T02:45:40.000Z</time>
      </trkpt>
      <trkpt lat="44.92545" lon="2.44186">
        <ele>618</ele>
        <time>2000-01-01T02:45:50.000Z</time>
      </trkpt>
      <trkpt lat="44.92564" lon="2.44212">
        <ele>618</ele>
        <time>2000-01-01T02:46:00.000Z</time>
      </trkpt>
      <trkpt lat="44.92587" lon="2.44244">
        <ele>619</ele>
        <time>2000-01-01T02:46:10.000Z</time>
      </trkpt>
      <trkpt lat="44.92614" lon="2.44265">
        <ele>619</ele>
        <time>2000-01-01T02:46:20.000Z</time>
      </trkpt>
      <trkpt lat="44.92664" lon="2.44305">
        <ele>619</ele>
        <time>2000-01-01T02:46:30.000Z</time>
      </trkpt>
      <trkpt lat="44.92672" lon="2.44308">
        <ele>618.2</ele>
        <time>2000-01-01T02:46:40.000Z</time>
      </trkpt>
      <trkpt lat="44.92727" lon="2.44343">
        <ele>620</ele>
        <time>2000-01-01T02:46:50.000Z</time>
      </trkpt>
      <trkpt lat="44.92754" lon="2.44365">
        <ele>620</ele>
        <time>2000-01-01T02:47:00.000Z</time>
      </trkpt>
      <trkpt lat="44.92767" lon="2.4438">
        <ele>619.2</ele>
        <time>2000-01-01T02:47:10.000Z</time>
      </trkpt>
      <trkpt lat="44.9283" lon="2.44298">
        <ele>621</ele>
        <time>2000-01-01T02:47:20.000Z</time>
      </trkpt>
      <trkpt lat="44.92837" lon="2.44296">
        <ele>622.1</ele>
        <time>2000-01-01T02:47:30.000Z</time>
      </trkpt>
      <trkpt lat="44.92847" lon="2.44288">
        <ele>622.2</ele>
        <time>2000-01-01T02:47:40.000Z</time>
      </trkpt>
      <trkpt lat="44.92857" lon="2.44296">
        <ele>623</ele>
        <time>2000-01-01T02:47:50.000Z</time>
      </trkpt>
      <trkpt lat="44.92877" lon="2.44319">
        <ele>624</ele>
        <time>2000-01-01T02:48:00.000Z</time>
      </trkpt>
      <trkpt lat="44.92901" lon="2.44347">
        <ele>624</ele>
        <time>2000-01-01T02:48:10.000Z</time>
      </trkpt>
      <trkpt lat="44.92917" lon="2.44344">
        <ele>624</ele>
        <time>2000-01-01T02:48:20.000Z</time>
      </trkpt>
      <trkpt lat="44.92986" lon="2.44261">
        <ele>629</ele>
        <time>2000-01-01T02:48:30.000Z</time>
      </trkpt>
      <trkpt lat="44.93013" lon="2.44244">
        <ele>632</ele>
        <time>2000-01-01T02:48:40.000Z</time>
      </trkpt>
      <trkpt lat="44.93024" lon="2.4424">
        <ele>631.5</ele>
        <time>2000-01-01T02:48:50.000Z</time>
      </trkpt>
      <trkpt lat="44.93047" lon="2.44238">
        <ele>634</ele>
        <time>2000-01-01T02:49:00.000Z</time>
      </trkpt>
      <trkpt lat="44.93067" lon="2.44233">
        <ele>634</ele>
        <time>2000-01-01T02:49:10.000Z</time>
      </trkpt>
      <trkpt lat="44.93093" lon="2.4421">
        <ele>636</ele>
        <time>2000-01-01T02:49:20.000Z</time>
      </trkpt>
      <trkpt lat="44.93109" lon="2.44184">
        <ele>639</ele>
        <time>2000-01-01T02:49:30.000Z</time>
      </trkpt>
      <trkpt lat="44.93126" lon="2.44158">
        <ele>641</ele>
        <time>2000-01-01T02:49:40.000Z</time>
      </trkpt>
      <trkpt lat="44.93147" lon="2.4413">
        <ele>643</ele>
        <time>2000-01-01T02:49:50.000Z</time>
      </trkpt>
      <trkpt lat="44.93181" lon="2.44086">
        <ele>648</ele>
        <time>2000-01-01T02:50:00.000Z</time>
      </trkpt>
      <trkpt lat="44.93203" lon="2.44061">
        <ele>650</ele>
        <time>2000-01-01T02:50:10.000Z</time>
      </trkpt>
      <trkpt lat="44.93233" lon="2.44027">
        <ele>658</ele>
        <time>2000-01-01T02:50:20.000Z</time>
      </trkpt>
      <trkpt lat="44.9326" lon="2.44004">
        <ele>662</ele>
        <time>2000-01-01T02:50:30.000Z</time>
      </trkpt>
      <trkpt lat="44.93271" lon="2.43978">
        <ele>666</ele>
        <time>2000-01-01T02:50:40.000Z</time>
      </trkpt>
      <trkpt lat="44.93278" lon="2.43969">
        <ele>666.2</ele>
        <time>2000-01-01T02:50:50.000Z</time>
      </trkpt>
      <trkpt lat="44.93307" lon="2.43943">
        <ele>673</ele>
        <time>2000-01-01T02:51:00.000Z</time>
      </trkpt>
      <trkpt lat="44.93324" lon="2.43903">
        <ele>679</ele>
        <time>2000-01-01T02:51:10.000Z</time>
      </trkpt>
      <trkpt lat="44.9334" lon="2.43881">
        <ele>681</ele>
        <time>2000-01-01T02:51:20.000Z</time>
      </trkpt>
      <trkpt lat="44.93363" lon="2.43857">
        <ele>684</ele>
        <time>2000-01-01T02:51:30.000Z</time>
      </trkpt>
      <trkpt lat="44.934" lon="2.43819">
        <ele>692</ele>
        <time>2000-01-01T02:51:40.000Z</time>
      </trkpt>
      <trkpt lat="44.93424" lon="2.43799">
        <ele>697</ele>
        <time>2000-01-01T02:51:50.000Z</time>
      </trkpt>
      <trkpt lat="44.93456" lon="2.43773">
        <ele>702</ele>
        <time>2000-01-01T02:52:00.000Z</time>
      </trkpt>
      <trkpt lat="44.93485" lon="2.43741">
        <ele>708</ele>
        <time>2000-01-01T02:52:10.000Z</time>
      </trkpt>
      <trkpt lat="44.9351" lon="2.43728">
        <ele>709</ele>
        <time>2000-01-01T02:52:20.000Z</time>
      </trkpt>
      <trkpt lat="44.9352" lon="2.43728">
        <ele>709.1</ele>
        <time>2000-01-01T02:52:30.000Z</time>
      </trkpt>
      <trkpt lat="44.93615" lon="2.43807">
        <ele>710</ele>
        <time>2000-01-01T02:52:40.000Z</time>
      </trkpt>
      <trkpt lat="44.93629" lon="2.43856">
        <ele>711</ele>
        <time>2000-01-01T02:52:50.000Z</time>
      </trkpt>
      <trkpt lat="44.93633" lon="2.4386">
        <ele>713.1</ele>
        <time>2000-01-01T02:53:00.000Z</time>
      </trkpt>
      <trkpt lat="44.93652" lon="2.43872">
        <ele>715</ele>
        <time>2000-01-01T02:53:10.000Z</time>
      </trkpt>
      <trkpt lat="44.93689" lon="2.43888">
        <ele>719</ele>
        <time>2000-01-01T02:53:20.000Z</time>
      </trkpt>
      <trkpt lat="44.93726" lon="2.43904">
        <ele>724</ele>
        <time>2000-01-01T02:53:30.000Z</time>
      </trkpt>
      <trkpt lat="44.93763" lon="2.4392">
        <ele>728</ele>
        <time>2000-01-01T02:53:40.000Z</time>
      </trkpt>
      <trkpt lat="44.93801" lon="2.43936">
        <ele>731</ele>
        <time>2000-01-01T02:53:50.000Z</time>
      </trkpt>
      <trkpt lat="44.93853" lon="2.43959">
        <ele>736</ele>
        <time>2000-01-01T02:54:00.000Z</time>
      </trkpt>
      <trkpt lat="44.93858" lon="2.43963">
        <ele>737</ele>
        <time>2000-01-01T02:54:10.000Z</time>
      </trkpt>
      <trkpt lat="44.93878" lon="2.44046">
        <ele>740</ele>
        <time>2000-01-01T02:54:20.000Z</time>
      </trkpt>
      <trkpt lat="44.93885" lon="2.44063">
        <ele>742.6</ele>
        <time>2000-01-01T02:54:30.000Z</time>
      </trkpt>
      <trkpt lat="44.9389" lon="2.44069">
        <ele>742</ele>
        <time>2000-01-01T02:54:40.000Z</time>
      </trkpt>
      <trkpt lat="44.93901" lon="2.44075">
        <ele>745.1</ele>
        <time>2000-01-01T02:54:50.000Z</time>
      </trkpt>
      <trkpt lat="44.93913" lon="2.44078">
        <ele>746</ele>
        <time>2000-01-01T02:55:00.000Z</time>
      </trkpt>
      <trkpt lat="44.9396" lon="2.4408">
        <ele>752</ele>
        <time>2000-01-01T02:55:10.000Z</time>
      </trkpt>
      <trkpt lat="44.93977" lon="2.44076">
        <ele>756.5</ele>
        <time>2000-01-01T02:55:20.000Z</time>
      </trkpt>
      <trkpt lat="44.93989" lon="2.4406">
        <ele>759</ele>
        <time>2000-01-01T02:55:30.000Z</time>
      </trkpt>
      <trkpt lat="44.93994" lon="2.44059">
        <ele>760.2</ele>
        <time>2000-01-01T02:55:40.000Z</time>
      </trkpt>
      <trkpt lat="44.94006" lon="2.44062">
        <ele>760.4</ele>
        <time>2000-01-01T02:55:50.000Z</time>
      </trkpt>
      <trkpt lat="44.94039" lon="2.44077">
        <ele>762</ele>
        <time>2000-01-01T02:56:00.000Z</time>
      </trkpt>
      <trkpt lat="44.9407" lon="2.44096">
        <ele>763</ele>
        <time>2000-01-01T02:56:10.000Z</time>
      </trkpt>
      <trkpt lat="44.94101" lon="2.44115">
        <ele>767</ele>
        <time>2000-01-01T02:56:20.000Z</time>
      </trkpt>
      <trkpt lat="44.94145" lon="2.44142">
        <ele>770</ele>
        <time>2000-01-01T02:56:30.000Z</time>
      </trkpt>
      <trkpt lat="44.94178" lon="2.44155">
        <ele>773</ele>
        <time>2000-01-01T02:56:40.000Z</time>
      </trkpt>
      <trkpt lat="44.94191" lon="2.44156">
        <ele>774.7</ele>
        <time>2000-01-01T02:56:50.000Z</time>
      </trkpt>
      <trkpt lat="44.94198" lon="2.44161">
        <ele>774</ele>
        <time>2000-01-01T02:57:00.000Z</time>
      </trkpt>
      <trkpt lat="44.94223" lon="2.44189">
        <ele>778</ele>
        <time>2000-01-01T02:57:10.000Z</time>
      </trkpt>
      <trkpt lat="44.94272" lon="2.44246">
        <ele>781</ele>
        <time>2000-01-01T02:57:20.000Z</time>
      </trkpt>
      <trkpt lat="44.94285" lon="2.4427">
        <ele>781</ele>
        <time>2000-01-01T02:57:30.000Z</time>
      </trkpt>
      <trkpt lat="44.94298" lon="2.44285">
        <ele>782.8</ele>
        <time>2000-01-01T02:57:40.000Z</time>
      </trkpt>
      <trkpt lat="44.9434" lon="2.44311">
        <ele>785</ele>
        <time>2000-01-01T02:57:50.000Z</time>
      </trkpt>
      <trkpt lat="44.94374" lon="2.44337">
        <ele>788</ele>
        <time>2000-01-01T02:58:00.000Z</time>
      </trkpt>
      <trkpt lat="44.94391" lon="2.44364">
        <ele>788</ele>
        <time>2000-01-01T02:58:10.000Z</time>
      </trkpt>
      <trkpt lat="44.94411" lon="2.44397">
        <ele>787</ele>
        <time>2000-01-01T02:58:20.000Z</time>
      </trkpt>
      <trkpt lat="44.94432" lon="2.44426">
        <ele>787</ele>
        <time>2000-01-01T02:58:30.000Z</time>
      </trkpt>
      <trkpt lat="44.94451" lon="2.44463">
        <ele>786</ele>
        <time>2000-01-01T02:58:40.000Z</time>
      </trkpt>
      <trkpt lat="44.94471" lon="2.44499">
        <ele>786</ele>
        <time>2000-01-01T02:58:50.000Z</time>
      </trkpt>
      <trkpt lat="44.94492" lon="2.4454">
        <ele>786</ele>
        <time>2000-01-01T02:59:00.000Z</time>
      </trkpt>
      <trkpt lat="44.94509" lon="2.44564">
        <ele>787</ele>
        <time>2000-01-01T02:59:10.000Z</time>
      </trkpt>
      <trkpt lat="44.94528" lon="2.4459">
        <ele>788</ele>
        <time>2000-01-01T02:59:20.000Z</time>
      </trkpt>
      <trkpt lat="44.94539" lon="2.44602">
        <ele>788.3</ele>
        <time>2000-01-01T02:59:30.000Z</time>
      </trkpt>
      <trkpt lat="44.94567" lon="2.44647">
        <ele>790</ele>
        <time>2000-01-01T02:59:40.000Z</time>
      </trkpt>
      <trkpt lat="44.94592" lon="2.44673">
        <ele>793</ele>
        <time>2000-01-01T02:59:50.000Z</time>
      </trkpt>
      <trkpt lat="44.94638" lon="2.44723">
        <ele>795</ele>
        <time>2000-01-01T03:00:00.000Z</time>
      </trkpt>
      <trkpt lat="44.94652" lon="2.44742">
        <ele>797</ele>
        <time>2000-01-01T03:00:10.000Z</time>
      </trkpt>
      <trkpt lat="44.94675" lon="2.44785">
        <ele>797</ele>
        <time>2000-01-01T03:00:20.000Z</time>
      </trkpt>
      <trkpt lat="44.94697" lon="2.44812">
        <ele>797</ele>
        <time>2000-01-01T03:00:30.000Z</time>
      </trkpt>
      <trkpt lat="44.94729" lon="2.44852">
        <ele>798</ele>
        <time>2000-01-01T03:00:40.000Z</time>
      </trkpt>
      <trkpt lat="44.94747" lon="2.4488">
        <ele>799</ele>
        <time>2000-01-01T03:00:50.000Z</time>
      </trkpt>
      <trkpt lat="44.94768" lon="2.449">
        <ele>800</ele>
        <time>2000-01-01T03:01:00.000Z</time>
      </trkpt>
      <trkpt lat="44.94791" lon="2.44923">
        <ele>800</ele>
        <time>2000-01-01T03:01:10.000Z</time>
      </trkpt>
      <trkpt lat="44.94811" lon="2.44936">
        <ele>800</ele>
        <time>2000-01-01T03:01:20.000Z</time>
      </trkpt>
      <trkpt lat="44.94833" lon="2.44967">
        <ele>800</ele>
        <time>2000-01-01T03:01:30.000Z</time>
      </trkpt>
      <trkpt lat="44.94877" lon="2.45027">
        <ele>800</ele>
        <time>2000-01-01T03:01:40.000Z</time>
      </trkpt>
      <trkpt lat="44.94899" lon="2.45053">
        <ele>801</ele>
        <time>2000-01-01T03:01:50.000Z</time>
      </trkpt>
      <trkpt lat="44.94933" lon="2.45092">
        <ele>801</ele>
        <time>2000-01-01T03:02:00.000Z</time>
      </trkpt>
      <trkpt lat="44.94942" lon="2.45101">
        <ele>801.4</ele>
        <time>2000-01-01T03:02:10.000Z</time>
      </trkpt>
      <trkpt lat="44.94988" lon="2.45132">
        <ele>802</ele>
        <time>2000-01-01T03:02:20.000Z</time>
      </trkpt>
      <trkpt lat="44.95006" lon="2.45147">
        <ele>802</ele>
        <time>2000-01-01T03:02:30.000Z</time>
      </trkpt>
      <trkpt lat="44.95031" lon="2.45173">
        <ele>803</ele>
        <time>2000-01-01T03:02:40.000Z</time>
      </trkpt>
      <trkpt lat="44.95051" lon="2.45194">
        <ele>804</ele>
        <time>2000-01-01T03:02:50.000Z</time>
      </trkpt>
      <trkpt lat="44.95075" lon="2.45219">
        <ele>806</ele>
        <time>2000-01-01T03:03:00.000Z</time>
      </trkpt>
      <trkpt lat="44.9511" lon="2.45264">
        <ele>808</ele>
        <time>2000-01-01T03:03:10.000Z</time>
      </trkpt>
      <trkpt lat="44.95142" lon="2.45305">
        <ele>811</ele>
        <time>2000-01-01T03:03:20.000Z</time>
      </trkpt>
      <trkpt lat="44.95162" lon="2.4533">
        <ele>813</ele>
        <time>2000-01-01T03:03:30.000Z</time>
      </trkpt>
      <trkpt lat="44.95186" lon="2.45361">
        <ele>815</ele>
        <time>2000-01-01T03:03:40.000Z</time>
      </trkpt>
      <trkpt lat="44.95206" lon="2.45384">
        <ele>817</ele>
        <time>2000-01-01T03:03:50.000Z</time>
      </trkpt>
      <trkpt lat="44.95228" lon="2.4541">
        <ele>818</ele>
        <time>2000-01-01T03:04:00.000Z</time>
      </trkpt>
      <trkpt lat="44.95262" lon="2.4545">
        <ele>820</ele>
        <time>2000-01-01T03:04:10.000Z</time>
      </trkpt>
      <trkpt lat="44.95292" lon="2.45484">
        <ele>820</ele>
        <time>2000-01-01T03:04:20.000Z</time>
      </trkpt>
      <trkpt lat="44.95312" lon="2.45506">
        <ele>818</ele>
        <time>2000-01-01T03:04:30.000Z</time>
      </trkpt>
      <trkpt lat="44.95335" lon="2.4553">
        <ele>816</ele>
        <time>2000-01-01T03:04:40.000Z</time>
      </trkpt>
      <trkpt lat="44.95345" lon="2.45546">
        <ele>814.3</ele>
        <time>2000-01-01T03:04:50.000Z</time>
      </trkpt>
      <trkpt lat="44.95356" lon="2.45581">
        <ele>813</ele>
        <time>2000-01-01T03:05:00.000Z</time>
      </trkpt>
      <trkpt lat="44.95365" lon="2.45616">
        <ele>813</ele>
        <time>2000-01-01T03:05:10.000Z</time>
      </trkpt>
      <trkpt lat="44.95376" lon="2.45658">
        <ele>813</ele>
        <time>2000-01-01T03:05:20.000Z</time>
      </trkpt>
      <trkpt lat="44.95384" lon="2.4571">
        <ele>813</ele>
        <time>2000-01-01T03:05:30.000Z</time>
      </trkpt>
      <trkpt lat="44.95405" lon="2.45766">
        <ele>813</ele>
        <time>2000-01-01T03:05:40.000Z</time>
      </trkpt>
      <trkpt lat="44.95428" lon="2.45813">
        <ele>814</ele>
        <time>2000-01-01T03:05:50.000Z</time>
      </trkpt>
      <trkpt lat="44.95445" lon="2.45849">
        <ele>816</ele>
        <time>2000-01-01T03:06:00.000Z</time>
      </trkpt>
      <trkpt lat="44.95449" lon="2.45866">
        <ele>817.4</ele>
        <time>2000-01-01T03:06:10.000Z</time>
      </trkpt>
      <trkpt lat="44.95461" lon="2.45877">
        <ele>818</ele>
        <time>2000-01-01T03:06:20.000Z</time>
      </trkpt>
      <trkpt lat="44.95479" lon="2.45903">
        <ele>819</ele>
        <time>2000-01-01T03:06:30.000Z</time>
      </trkpt>
      <trkpt lat="44.95499" lon="2.45933">
        <ele>821</ele>
        <time>2000-01-01T03:06:40.000Z</time>
      </trkpt>
      <trkpt lat="44.95507" lon="2.45938">
        <ele>821</ele>
        <time>2000-01-01T03:06:50.000Z</time>
      </trkpt>
      <trkpt lat="44.95524" lon="2.45955">
        <ele>822</ele>
        <time>2000-01-01T03:07:00.000Z</time>
      </trkpt>
      <trkpt lat="44.95543" lon="2.45982">
        <ele>824</ele>
        <time>2000-01-01T03:07:10.000Z</time>
      </trkpt>
      <trkpt lat="44.95566" lon="2.46016">
        <ele>825</ele>
        <time>2000-01-01T03:07:20.000Z</time>
      </trkpt>
      <trkpt lat="44.95583" lon="2.4604">
        <ele>826</ele>
        <time>2000-01-01T03:07:30.000Z</time>
      </trkpt>
      <trkpt lat="44.95599" lon="2.46065">
        <ele>826</ele>
        <time>2000-01-01T03:07:40.000Z</time>
      </trkpt>
      <trkpt lat="44.95628" lon="2.46106">
        <ele>827</ele>
        <time>2000-01-01T03:07:50.000Z</time>
      </trkpt>
      <trkpt lat="44.95643" lon="2.46119">
        <ele>828.8</ele>
        <time>2000-01-01T03:08:00.000Z</time>
      </trkpt>
      <trkpt lat="44.9566" lon="2.46143">
        <ele>829</ele>
        <time>2000-01-01T03:08:10.000Z</time>
      </trkpt>
      <trkpt lat="44.95689" lon="2.46186">
        <ele>829</ele>
        <time>2000-01-01T03:08:20.000Z</time>
      </trkpt>
      <trkpt lat="44.95707" lon="2.46218">
        <ele>828</ele>
        <time>2000-01-01T03:08:30.000Z</time>
      </trkpt>
      <trkpt lat="44.95735" lon="2.46269">
        <ele>827</ele>
        <time>2000-01-01T03:08:40.000Z</time>
      </trkpt>
      <trkpt lat="44.95763" lon="2.4632">
        <ele>825</ele>
        <time>2000-01-01T03:08:50.000Z</time>
      </trkpt>
      <trkpt lat="44.95781" lon="2.46348">
        <ele>825</ele>
        <time>2000-01-01T03:09:00.000Z</time>
      </trkpt>
      <trkpt lat="44.95803" lon="2.46382">
        <ele>825</ele>
        <time>2000-01-01T03:09:10.000Z</time>
      </trkpt>
      <trkpt lat="44.95821" lon="2.46409">
        <ele>825</ele>
        <time>2000-01-01T03:09:20.000Z</time>
      </trkpt>
      <trkpt lat="44.95831" lon="2.4642">
        <ele>825.4</ele>
        <time>2000-01-01T03:09:30.000Z</time>
      </trkpt>
      <trkpt lat="44.95844" lon="2.46443">
        <ele>826</ele>
        <time>2000-01-01T03:09:40.000Z</time>
      </trkpt>
      <trkpt lat="44.95877" lon="2.46484">
        <ele>826</ele>
        <time>2000-01-01T03:09:50.000Z</time>
      </trkpt>
      <trkpt lat="44.95899" lon="2.46505">
        <ele>826</ele>
        <time>2000-01-01T03:10:00.000Z</time>
      </trkpt>
      <trkpt lat="44.95907" lon="2.4652">
        <ele>825.2</ele>
        <time>2000-01-01T03:10:10.000Z</time>
      </trkpt>
      <trkpt lat="44.95923" lon="2.4654">
        <ele>825</ele>
        <time>2000-01-01T03:10:20.000Z</time>
      </trkpt>
      <trkpt lat="44.95943" lon="2.46525">
        <ele>822</ele>
        <time>2000-01-01T03:10:30.000Z</time>
      </trkpt>
      <trkpt lat="44.95973" lon="2.46541">
        <ele>821</ele>
        <time>2000-01-01T03:10:40.000Z</time>
      </trkpt>
      <trkpt lat="44.96003" lon="2.46557">
        <ele>820</ele>
        <time>2000-01-01T03:10:50.000Z</time>
      </trkpt>
      <trkpt lat="44.96037" lon="2.46575">
        <ele>820</ele>
        <time>2000-01-01T03:11:00.000Z</time>
      </trkpt>
      <trkpt lat="44.96066" lon="2.46586">
        <ele>820</ele>
        <time>2000-01-01T03:11:10.000Z</time>
      </trkpt>
      <trkpt lat="44.96115" lon="2.46605">
        <ele>819</ele>
        <time>2000-01-01T03:11:20.000Z</time>
      </trkpt>
      <trkpt lat="44.96138" lon="2.46611">
        <ele>818</ele>
        <time>2000-01-01T03:11:30.000Z</time>
      </trkpt>
      <trkpt lat="44.96167" lon="2.46616">
        <ele>818</ele>
        <time>2000-01-01T03:11:40.000Z</time>
      </trkpt>
      <trkpt lat="44.9619" lon="2.46617">
        <ele>819</ele>
        <time>2000-01-01T03:11:50.000Z</time>
      </trkpt>
      <trkpt lat="44.96211" lon="2.46615">
        <ele>820</ele>
        <time>2000-01-01T03:12:00.000Z</time>
      </trkpt>
      <trkpt lat="44.96239" lon="2.46616">
        <ele>820</ele>
        <time>2000-01-01T03:12:10.000Z</time>
      </trkpt>
      <trkpt lat="44.96279" lon="2.46618">
        <ele>820</ele>
        <time>2000-01-01T03:12:20.000Z</time>
      </trkpt>
      <trkpt lat="44.96306" lon="2.4663">
        <ele>820</ele>
        <time>2000-01-01T03:12:30.000Z</time>
      </trkpt>
      <trkpt lat="44.96323" lon="2.46646">
        <ele>820</ele>
        <time>2000-01-01T03:12:40.000Z</time>
      </trkpt>
      <trkpt lat="44.96349" lon="2.46665">
        <ele>820</ele>
        <time>2000-01-01T03:12:50.000Z</time>
      </trkpt>
      <trkpt lat="44.96372" lon="2.46686">
        <ele>820</ele>
        <time>2000-01-01T03:13:00.000Z</time>
      </trkpt>
      <trkpt lat="44.96403" lon="2.46714">
        <ele>820</ele>
        <time>2000-01-01T03:13:10.000Z</time>
      </trkpt>
      <trkpt lat="44.96441" lon="2.46715">
        <ele>821</ele>
        <time>2000-01-01T03:13:20.000Z</time>
      </trkpt>
      <trkpt lat="44.96463" lon="2.46732">
        <ele>822</ele>
        <time>2000-01-01T03:13:30.000Z</time>
      </trkpt>
      <trkpt lat="44.96468" lon="2.46732">
        <ele>823</ele>
        <time>2000-01-01T03:13:40.000Z</time>
      </trkpt>
      <trkpt lat="44.96488" lon="2.46722">
        <ele>825</ele>
        <time>2000-01-01T03:13:50.000Z</time>
      </trkpt>
      <trkpt lat="44.96517" lon="2.46698">
        <ele>830</ele>
        <time>2000-01-01T03:14:00.000Z</time>
      </trkpt>
      <trkpt lat="44.96535" lon="2.46674">
        <ele>834</ele>
        <time>2000-01-01T03:14:10.000Z</time>
      </trkpt>
      <trkpt lat="44.96543" lon="2.46669">
        <ele>837.2</ele>
        <time>2000-01-01T03:14:20.000Z</time>
      </trkpt>
      <trkpt lat="44.96563" lon="2.46644">
        <ele>840</ele>
        <time>2000-01-01T03:14:30.000Z</time>
      </trkpt>
      <trkpt lat="44.96574" lon="2.46626">
        <ele>840.7</ele>
        <time>2000-01-01T03:14:40.000Z</time>
      </trkpt>
      <trkpt lat="44.96581" lon="2.46609">
        <ele>840</ele>
        <time>2000-01-01T03:14:50.000Z</time>
      </trkpt>
      <trkpt lat="44.96583" lon="2.46607">
        <ele>840.7</ele>
        <time>2000-01-01T03:15:00.000Z</time>
      </trkpt>
      <trkpt lat="44.96591" lon="2.46607">
        <ele>841.5</ele>
        <time>2000-01-01T03:15:10.000Z</time>
      </trkpt>
      <trkpt lat="44.96593" lon="2.4661">
        <ele>842</ele>
        <time>2000-01-01T03:15:20.000Z</time>
      </trkpt>
      <trkpt lat="44.96641" lon="2.46703">
        <ele>841</ele>
        <time>2000-01-01T03:15:30.000Z</time>
      </trkpt>
      <trkpt lat="44.96663" lon="2.46757">
        <ele>841</ele>
        <time>2000-01-01T03:15:40.000Z</time>
      </trkpt>
      <trkpt lat="44.96674" lon="2.46791">
        <ele>842</ele>
        <time>2000-01-01T03:15:50.000Z</time>
      </trkpt>
      <trkpt lat="44.96687" lon="2.46834">
        <ele>842</ele>
        <time>2000-01-01T03:16:00.000Z</time>
      </trkpt>
      <trkpt lat="44.96697" lon="2.46874">
        <ele>843</ele>
        <time>2000-01-01T03:16:10.000Z</time>
      </trkpt>
      <trkpt lat="44.96713" lon="2.46941">
        <ele>843</ele>
        <time>2000-01-01T03:16:20.000Z</time>
      </trkpt>
      <trkpt lat="44.96715" lon="2.46976">
        <ele>844</ele>
        <time>2000-01-01T03:16:30.000Z</time>
      </trkpt>
      <trkpt lat="44.96714" lon="2.47017">
        <ele>844</ele>
        <time>2000-01-01T03:16:40.000Z</time>
      </trkpt>
      <trkpt lat="44.96712" lon="2.4708">
        <ele>843</ele>
        <time>2000-01-01T03:16:50.000Z</time>
      </trkpt>
      <trkpt lat="44.96717" lon="2.47138">
        <ele>843</ele>
        <time>2000-01-01T03:17:00.000Z</time>
      </trkpt>
      <trkpt lat="44.96724" lon="2.47182">
        <ele>841</ele>
        <time>2000-01-01T03:17:10.000Z</time>
      </trkpt>
      <trkpt lat="44.96738" lon="2.47219">
        <ele>840</ele>
        <time>2000-01-01T03:17:20.000Z</time>
      </trkpt>
      <trkpt lat="44.96745" lon="2.47254">
        <ele>840</ele>
        <time>2000-01-01T03:17:30.000Z</time>
      </trkpt>
      <trkpt lat="44.96754" lon="2.47295">
        <ele>840</ele>
        <time>2000-01-01T03:17:40.000Z</time>
      </trkpt>
      <trkpt lat="44.96755" lon="2.47309">
        <ele>839.3</ele>
        <time>2000-01-01T03:17:50.000Z</time>
      </trkpt>
      <trkpt lat="44.96748" lon="2.47564">
        <ele>842</ele>
        <time>2000-01-01T03:18:00.000Z</time>
      </trkpt>
      <trkpt lat="44.96754" lon="2.47583">
        <ele>842.8</ele>
        <time>2000-01-01T03:18:10.000Z</time>
      </trkpt>
      <trkpt lat="44.96782" lon="2.47606">
        <ele>843</ele>
        <time>2000-01-01T03:18:20.000Z</time>
      </trkpt>
      <trkpt lat="44.96795" lon="2.47625">
        <ele>843.1</ele>
        <time>2000-01-01T03:18:30.000Z</time>
      </trkpt>
      <trkpt lat="44.96821" lon="2.47643">
        <ele>844</ele>
        <time>2000-01-01T03:18:40.000Z</time>
      </trkpt>
      <trkpt lat="44.96845" lon="2.47666">
        <ele>846</ele>
        <time>2000-01-01T03:18:50.000Z</time>
      </trkpt>
      <trkpt lat="44.96883" lon="2.47701">
        <ele>848</ele>
        <time>2000-01-01T03:19:00.000Z</time>
      </trkpt>
      <trkpt lat="44.96901" lon="2.47725">
        <ele>851</ele>
        <time>2000-01-01T03:19:10.000Z</time>
      </trkpt>
      <trkpt lat="44.96915" lon="2.47731">
        <ele>851.9</ele>
        <time>2000-01-01T03:19:20.000Z</time>
      </trkpt>
      <trkpt lat="44.96941" lon="2.47751">
        <ele>853</ele>
        <time>2000-01-01T03:19:30.000Z</time>
      </trkpt>
      <trkpt lat="44.96982" lon="2.47774">
        <ele>855</ele>
        <time>2000-01-01T03:19:40.000Z</time>
      </trkpt>
      <trkpt lat="44.97008" lon="2.47793">
        <ele>856</ele>
        <time>2000-01-01T03:19:50.000Z</time>
      </trkpt>
      <trkpt lat="44.97048" lon="2.47823">
        <ele>858</ele>
        <time>2000-01-01T03:20:00.000Z</time>
      </trkpt>
      <trkpt lat="44.97065" lon="2.47841">
        <ele>859</ele>
        <time>2000-01-01T03:20:10.000Z</time>
      </trkpt>
      <trkpt lat="44.97085" lon="2.47854">
        <ele>859</ele>
        <time>2000-01-01T03:20:20.000Z</time>
      </trkpt>
      <trkpt lat="44.97115" lon="2.47898">
        <ele>860</ele>
        <time>2000-01-01T03:20:30.000Z</time>
      </trkpt>
      <trkpt lat="44.97137" lon="2.47935">
        <ele>861</ele>
        <time>2000-01-01T03:20:40.000Z</time>
      </trkpt>
      <trkpt lat="44.97159" lon="2.47972">
        <ele>861</ele>
        <time>2000-01-01T03:20:50.000Z</time>
      </trkpt>
      <trkpt lat="44.97194" lon="2.48031">
        <ele>863</ele>
        <time>2000-01-01T03:21:00.000Z</time>
      </trkpt>
      <trkpt lat="44.97212" lon="2.48054">
        <ele>864</ele>
        <time>2000-01-01T03:21:10.000Z</time>
      </trkpt>
      <trkpt lat="44.9723" lon="2.48078">
        <ele>864</ele>
        <time>2000-01-01T03:21:20.000Z</time>
      </trkpt>
      <trkpt lat="44.97264" lon="2.48116">
        <ele>866</ele>
        <time>2000-01-01T03:21:30.000Z</time>
      </trkpt>
      <trkpt lat="44.97282" lon="2.48152">
        <ele>866</ele>
        <time>2000-01-01T03:21:40.000Z</time>
      </trkpt>
      <trkpt lat="44.97316" lon="2.4822">
        <ele>867</ele>
        <time>2000-01-01T03:21:50.000Z</time>
      </trkpt>
      <trkpt lat="44.97331" lon="2.48268">
        <ele>867</ele>
        <time>2000-01-01T03:22:00.000Z</time>
      </trkpt>
      <trkpt lat="44.97365" lon="2.4827">
        <ele>867</ele>
        <time>2000-01-01T03:22:10.000Z</time>
      </trkpt>
      <trkpt lat="44.97388" lon="2.48263">
        <ele>866</ele>
        <time>2000-01-01T03:22:20.000Z</time>
      </trkpt>
      <trkpt lat="44.97412" lon="2.48256">
        <ele>863</ele>
        <time>2000-01-01T03:22:30.000Z</time>
      </trkpt>
      <trkpt lat="44.97454" lon="2.48248">
        <ele>858</ele>
        <time>2000-01-01T03:22:40.000Z</time>
      </trkpt>
      <trkpt lat="44.97471" lon="2.48279">
        <ele>858</ele>
        <time>2000-01-01T03:22:50.000Z</time>
      </trkpt>
      <trkpt lat="44.97483" lon="2.48316">
        <ele>859</ele>
        <time>2000-01-01T03:23:00.000Z</time>
      </trkpt>
      <trkpt lat="44.975" lon="2.48372">
        <ele>864</ele>
        <time>2000-01-01T03:23:10.000Z</time>
      </trkpt>
      <trkpt lat="44.97514" lon="2.48402">
        <ele>867</ele>
        <time>2000-01-01T03:23:20.000Z</time>
      </trkpt>
      <trkpt lat="44.97531" lon="2.48437">
        <ele>870</ele>
        <time>2000-01-01T03:23:30.000Z</time>
      </trkpt>
      <trkpt lat="44.97543" lon="2.4847">
        <ele>873</ele>
        <time>2000-01-01T03:23:40.000Z</time>
      </trkpt>
      <trkpt lat="44.97558" lon="2.48509">
        <ele>876</ele>
        <time>2000-01-01T03:23:50.000Z</time>
      </trkpt>
      <trkpt lat="44.97568" lon="2.48556">
        <ele>876</ele>
        <time>2000-01-01T03:24:00.000Z</time>
      </trkpt>
      <trkpt lat="44.9758" lon="2.4859">
        <ele>876</ele>
        <time>2000-01-01T03:24:10.000Z</time>
      </trkpt>
      <trkpt lat="44.97596" lon="2.48636">
        <ele>878</ele>
        <time>2000-01-01T03:24:20.000Z</time>
      </trkpt>
      <trkpt lat="44.97613" lon="2.48667">
        <ele>878</ele>
        <time>2000-01-01T03:24:30.000Z</time>
      </trkpt>
      <trkpt lat="44.97638" lon="2.48712">
        <ele>877</ele>
        <time>2000-01-01T03:24:40.000Z</time>
      </trkpt>
      <trkpt lat="44.97636" lon="2.48746">
        <ele>877</ele>
        <time>2000-01-01T03:24:50.000Z</time>
      </trkpt>
      <trkpt lat="44.97633" lon="2.48783">
        <ele>877</ele>
        <time>2000-01-01T03:25:00.000Z</time>
      </trkpt>
      <trkpt lat="44.97636" lon="2.48817">
        <ele>878</ele>
        <time>2000-01-01T03:25:10.000Z</time>
      </trkpt>
      <trkpt lat="44.97639" lon="2.48852">
        <ele>879</ele>
        <time>2000-01-01T03:25:20.000Z</time>
      </trkpt>
      <trkpt lat="44.97644" lon="2.48885">
        <ele>880</ele>
        <time>2000-01-01T03:25:30.000Z</time>
      </trkpt>
      <trkpt lat="44.97649" lon="2.48918">
        <ele>881</ele>
        <time>2000-01-01T03:25:40.000Z</time>
      </trkpt>
      <trkpt lat="44.97668" lon="2.48966">
        <ele>881</ele>
        <time>2000-01-01T03:25:50.000Z</time>
      </trkpt>
      <trkpt lat="44.97681" lon="2.49011">
        <ele>881</ele>
        <time>2000-01-01T03:26:00.000Z</time>
      </trkpt>
      <trkpt lat="44.97708" lon="2.49052">
        <ele>881</ele>
        <time>2000-01-01T03:26:10.000Z</time>
      </trkpt>
      <trkpt lat="44.97735" lon="2.49092">
        <ele>881</ele>
        <time>2000-01-01T03:26:20.000Z</time>
      </trkpt>
      <trkpt lat="44.97762" lon="2.49133">
        <ele>881</ele>
        <time>2000-01-01T03:26:30.000Z</time>
      </trkpt>
      <trkpt lat="44.97789" lon="2.49174">
        <ele>883</ele>
        <time>2000-01-01T03:26:40.000Z</time>
      </trkpt>
      <trkpt lat="44.97837" lon="2.49247">
        <ele>882</ele>
        <time>2000-01-01T03:26:50.000Z</time>
      </trkpt>
      <trkpt lat="44.97826" lon="2.49297">
        <ele>881</ele>
        <time>2000-01-01T03:27:00.000Z</time>
      </trkpt>
      <trkpt lat="44.97814" lon="2.49347">
        <ele>878</ele>
        <time>2000-01-01T03:27:10.000Z</time>
      </trkpt>
      <trkpt lat="44.97803" lon="2.49397">
        <ele>877</ele>
        <time>2000-01-01T03:27:20.000Z</time>
      </trkpt>
      <trkpt lat="44.97785" lon="2.49477">
        <ele>875</ele>
        <time>2000-01-01T03:27:30.000Z</time>
      </trkpt>
      <trkpt lat="44.9779" lon="2.49522">
        <ele>878</ele>
        <time>2000-01-01T03:27:40.000Z</time>
      </trkpt>
      <trkpt lat="44.97795" lon="2.49567">
        <ele>881</ele>
        <time>2000-01-01T03:27:50.000Z</time>
      </trkpt>
      <trkpt lat="44.978" lon="2.49614">
        <ele>889</ele>
        <time>2000-01-01T03:28:00.000Z</time>
      </trkpt>
      <trkpt lat="44.97784" lon="2.49652">
        <ele>887</ele>
        <time>2000-01-01T03:28:10.000Z</time>
      </trkpt>
      <trkpt lat="44.97754" lon="2.49727">
        <ele>886</ele>
        <time>2000-01-01T03:28:20.000Z</time>
      </trkpt>
      <trkpt lat="44.97725" lon="2.49762">
        <ele>884</ele>
        <time>2000-01-01T03:28:30.000Z</time>
      </trkpt>
      <trkpt lat="44.97696" lon="2.49796">
        <ele>881</ele>
        <time>2000-01-01T03:28:40.000Z</time>
      </trkpt>
      <trkpt lat="44.97668" lon="2.49831">
        <ele>876</ele>
        <time>2000-01-01T03:28:50.000Z</time>
      </trkpt>
      <trkpt lat="44.97615" lon="2.49895">
        <ele>871</ele>
        <time>2000-01-01T03:29:00.000Z</time>
      </trkpt>
      <trkpt lat="44.97594" lon="2.49933">
        <ele>864</ele>
        <time>2000-01-01T03:29:10.000Z</time>
      </trkpt>
      <trkpt lat="44.97574" lon="2.49971">
        <ele>858</ele>
        <time>2000-01-01T03:29:20.000Z</time>
      </trkpt>
      <trkpt lat="44.97543" lon="2.50027">
        <ele>848</ele>
        <time>2000-01-01T03:29:30.000Z</time>
      </trkpt>
      <trkpt lat="44.97515" lon="2.50048">
        <ele>840</ele>
        <time>2000-01-01T03:29:40.000Z</time>
      </trkpt>
      <trkpt lat="44.9746" lon="2.50091">
        <ele>839</ele>
        <time>2000-01-01T03:29:50.000Z</time>
      </trkpt>
      <trkpt lat="44.97464" lon="2.50125">
        <ele>838</ele>
        <time>2000-01-01T03:30:00.000Z</time>
      </trkpt>
      <trkpt lat="44.97468" lon="2.50159">
        <ele>838</ele>
        <time>2000-01-01T03:30:10.000Z</time>
      </trkpt>
      <trkpt lat="44.97484" lon="2.50189">
        <ele>837</ele>
        <time>2000-01-01T03:30:20.000Z</time>
      </trkpt>
      <trkpt lat="44.97504" lon="2.50228">
        <ele>837</ele>
        <time>2000-01-01T03:30:30.000Z</time>
      </trkpt>
      <trkpt lat="44.97518" lon="2.5026">
        <ele>837</ele>
        <time>2000-01-01T03:30:40.000Z</time>
      </trkpt>
      <trkpt lat="44.97536" lon="2.50301">
        <ele>837</ele>
        <time>2000-01-01T03:30:50.000Z</time>
      </trkpt>
      <trkpt lat="44.97544" lon="2.50339">
        <ele>837</ele>
        <time>2000-01-01T03:31:00.000Z</time>
      </trkpt>
      <trkpt lat="44.97556" lon="2.50392">
        <ele>840</ele>
        <time>2000-01-01T03:31:10.000Z</time>
      </trkpt>
      <trkpt lat="44.97582" lon="2.50437">
        <ele>844</ele>
        <time>2000-01-01T03:31:20.000Z</time>
      </trkpt>
      <trkpt lat="44.97603" lon="2.50459">
        <ele>845</ele>
        <time>2000-01-01T03:31:30.000Z</time>
      </trkpt>
      <trkpt lat="44.97622" lon="2.50494">
        <ele>846</ele>
        <time>2000-01-01T03:31:40.000Z</time>
      </trkpt>
      <trkpt lat="44.97659" lon="2.50562">
        <ele>849</ele>
        <time>2000-01-01T03:31:50.000Z</time>
      </trkpt>
      <trkpt lat="44.97683" lon="2.50581">
        <ele>855</ele>
        <time>2000-01-01T03:32:00.000Z</time>
      </trkpt>
      <trkpt lat="44.97709" lon="2.50625">
        <ele>858</ele>
        <time>2000-01-01T03:32:10.000Z</time>
      </trkpt>
      <trkpt lat="44.9773" lon="2.50652">
        <ele>859</ele>
        <time>2000-01-01T03:32:20.000Z</time>
      </trkpt>
      <trkpt lat="44.97743" lon="2.50699">
        <ele>861</ele>
        <time>2000-01-01T03:32:30.000Z</time>
      </trkpt>
      <trkpt lat="44.97784" lon="2.50712">
        <ele>866</ele>
        <time>2000-01-01T03:32:40.000Z</time>
      </trkpt>
      <trkpt lat="44.97823" lon="2.5075">
        <ele>868</ele>
        <time>2000-01-01T03:32:50.000Z</time>
      </trkpt>
      <trkpt lat="44.97846" lon="2.5075">
        <ele>871</ele>
        <time>2000-01-01T03:33:00.000Z</time>
      </trkpt>
      <trkpt lat="44.97868" lon="2.50736">
        <ele>871</ele>
        <time>2000-01-01T03:33:10.000Z</time>
      </trkpt>
      <trkpt lat="44.97892" lon="2.50721">
        <ele>871</ele>
        <time>2000-01-01T03:33:20.000Z</time>
      </trkpt>
      <trkpt lat="44.97922" lon="2.5068">
        <ele>871</ele>
        <time>2000-01-01T03:33:30.000Z</time>
      </trkpt>
      <trkpt lat="44.97926" lon="2.50739">
        <ele>865</ele>
        <time>2000-01-01T03:33:40.000Z</time>
      </trkpt>
      <trkpt lat="44.97918" lon="2.50774">
        <ele>862</ele>
        <time>2000-01-01T03:33:50.000Z</time>
      </trkpt>
      <trkpt lat="44.97926" lon="2.50824">
        <ele>854</ele>
        <time>2000-01-01T03:34:00.000Z</time>
      </trkpt>
      <trkpt lat="44.97918" lon="2.50877">
        <ele>851</ele>
        <time>2000-01-01T03:34:10.000Z</time>
      </trkpt>
      <trkpt lat="44.97923" lon="2.50914">
        <ele>847</ele>
        <time>2000-01-01T03:34:20.000Z</time>
      </trkpt>
      <trkpt lat="44.9793" lon="2.50963">
        <ele>840</ele>
        <time>2000-01-01T03:34:30.000Z</time>
      </trkpt>
      <trkpt lat="44.9792" lon="2.51012">
        <ele>832</ele>
        <time>2000-01-01T03:34:40.000Z</time>
      </trkpt>
      <trkpt lat="44.97939" lon="2.51026">
        <ele>825</ele>
        <time>2000-01-01T03:34:50.000Z</time>
      </trkpt>
      <trkpt lat="44.97979" lon="2.50998">
        <ele>819</ele>
        <time>2000-01-01T03:35:00.000Z</time>
      </trkpt>
      <trkpt lat="44.97995" lon="2.50976">
        <ele>819</ele>
        <time>2000-01-01T03:35:10.000Z</time>
      </trkpt>
      <trkpt lat="44.98017" lon="2.50953">
        <ele>815</ele>
        <time>2000-01-01T03:35:20.000Z</time>
      </trkpt>
      <trkpt lat="44.98046" lon="2.50938">
        <ele>810</ele>
        <time>2000-01-01T03:35:30.000Z</time>
      </trkpt>
      <trkpt lat="44.98065" lon="2.5091">
        <ele>810</ele>
        <time>2000-01-01T03:35:40.000Z</time>
      </trkpt>
      <trkpt lat="44.98091" lon="2.509">
        <ele>810</ele>
        <time>2000-01-01T03:35:50.000Z</time>
      </trkpt>
      <trkpt lat="44.98125" lon="2.50886">
        <ele>812</ele>
        <time>2000-01-01T03:36:00.000Z</time>
      </trkpt>
      <trkpt lat="44.98153" lon="2.50906">
        <ele>812</ele>
        <time>2000-01-01T03:36:10.000Z</time>
      </trkpt>
      <trkpt lat="44.98127" lon="2.50951">
        <ele>799</ele>
        <time>2000-01-01T03:36:20.000Z</time>
      </trkpt>
      <trkpt lat="44.981" lon="2.50996">
        <ele>793</ele>
        <time>2000-01-01T03:36:30.000Z</time>
      </trkpt>
      <trkpt lat="44.98074" lon="2.51041">
        <ele>793</ele>
        <time>2000-01-01T03:36:40.000Z</time>
      </trkpt>
      <trkpt lat="44.98048" lon="2.51086">
        <ele>789</ele>
        <time>2000-01-01T03:36:50.000Z</time>
      </trkpt>
      <trkpt lat="44.98022" lon="2.51131">
        <ele>780</ele>
        <time>2000-01-01T03:37:00.000Z</time>
      </trkpt>
      <trkpt lat="44.97996" lon="2.51175">
        <ele>772</ele>
        <time>2000-01-01T03:37:10.000Z</time>
      </trkpt>
      <trkpt lat="44.97959" lon="2.51238">
        <ele>756</ele>
        <time>2000-01-01T03:37:20.000Z</time>
      </trkpt>
      <trkpt lat="44.97939" lon="2.51293">
        <ele>745</ele>
        <time>2000-01-01T03:37:30.000Z</time>
      </trkpt>
      <trkpt lat="44.97911" lon="2.5134">
        <ele>735</ele>
        <time>2000-01-01T03:37:40.000Z</time>
      </trkpt>
      <trkpt lat="44.97889" lon="2.51353">
        <ele>734</ele>
        <time>2000-01-01T03:37:50.000Z</time>
      </trkpt>
      <trkpt lat="44.97867" lon="2.51367">
        <ele>733</ele>
        <time>2000-01-01T03:38:00.000Z</time>
      </trkpt>
      <trkpt lat="44.97847" lon="2.514">
        <ele>723</ele>
        <time>2000-01-01T03:38:10.000Z</time>
      </trkpt>
      <trkpt lat="44.97833" lon="2.51432">
        <ele>717</ele>
        <time>2000-01-01T03:38:20.000Z</time>
      </trkpt>
      <trkpt lat="44.97815" lon="2.51472">
        <ele>716</ele>
        <time>2000-01-01T03:38:30.000Z</time>
      </trkpt>
      <trkpt lat="44.97807" lon="2.51502">
        <ele>718</ele>
        <time>2000-01-01T03:38:40.000Z</time>
      </trkpt>
      <trkpt lat="44.97834" lon="2.51529">
        <ele>720</ele>
        <time>2000-01-01T03:38:50.000Z</time>
      </trkpt>
      <trkpt lat="44.97854" lon="2.51567">
        <ele>723</ele>
        <time>2000-01-01T03:39:00.000Z</time>
      </trkpt>
      <trkpt lat="44.97875" lon="2.51624">
        <ele>726</ele>
        <time>2000-01-01T03:39:10.000Z</time>
      </trkpt>
      <trkpt lat="44.97882" lon="2.5168">
        <ele>727</ele>
        <time>2000-01-01T03:39:20.000Z</time>
      </trkpt>
      <trkpt lat="44.97879" lon="2.51716">
        <ele>728</ele>
        <time>2000-01-01T03:39:30.000Z</time>
      </trkpt>
      <trkpt lat="44.97876" lon="2.5176">
        <ele>728</ele>
        <time>2000-01-01T03:39:40.000Z</time>
      </trkpt>
      <trkpt lat="44.97896" lon="2.51807">
        <ele>729</ele>
        <time>2000-01-01T03:39:50.000Z</time>
      </trkpt>
      <trkpt lat="44.97915" lon="2.5183">
        <ele>731</ele>
        <time>2000-01-01T03:40:00.000Z</time>
      </trkpt>
      <trkpt lat="44.97936" lon="2.51856">
        <ele>736</ele>
        <time>2000-01-01T03:40:10.000Z</time>
      </trkpt>
      <trkpt lat="44.97959" lon="2.519">
        <ele>740</ele>
        <time>2000-01-01T03:40:20.000Z</time>
      </trkpt>
      <trkpt lat="44.97984" lon="2.51938">
        <ele>742</ele>
        <time>2000-01-01T03:40:30.000Z</time>
      </trkpt>
      <trkpt lat="44.97969" lon="2.51998">
        <ele>740</ele>
        <time>2000-01-01T03:40:40.000Z</time>
      </trkpt>
      <trkpt lat="44.97946" lon="2.52057">
        <ele>739</ele>
        <time>2000-01-01T03:40:50.000Z</time>
      </trkpt>
      <trkpt lat="44.97936" lon="2.52089">
        <ele>734</ele>
        <time>2000-01-01T03:41:00.000Z</time>
      </trkpt>
      <trkpt lat="44.97931" lon="2.52123">
        <ele>731</ele>
        <time>2000-01-01T03:41:10.000Z</time>
      </trkpt>
      <trkpt lat="44.97926" lon="2.52158">
        <ele>717</ele>
        <time>2000-01-01T03:41:20.000Z</time>
      </trkpt>
      <trkpt lat="44.97905" lon="2.52218">
        <ele>706</ele>
        <time>2000-01-01T03:41:30.000Z</time>
      </trkpt>
      <trkpt lat="44.97885" lon="2.52249">
        <ele>701</ele>
        <time>2000-01-01T03:41:40.000Z</time>
      </trkpt>
      <trkpt lat="44.97856" lon="2.52281">
        <ele>693</ele>
        <time>2000-01-01T03:41:50.000Z</time>
      </trkpt>
      <trkpt lat="44.97839" lon="2.52318">
        <ele>690</ele>
        <time>2000-01-01T03:42:00.000Z</time>
      </trkpt>
      <trkpt lat="44.9782" lon="2.52338">
        <ele>688</ele>
        <time>2000-01-01T03:42:10.000Z</time>
      </trkpt>
      <trkpt lat="44.97801" lon="2.52359">
        <ele>688</ele>
        <time>2000-01-01T03:42:20.000Z</time>
      </trkpt>
      <trkpt lat="44.97769" lon="2.52314">
        <ele>689</ele>
        <time>2000-01-01T03:42:30.000Z</time>
      </trkpt>
      <trkpt lat="44.97749" lon="2.52335">
        <ele>689</ele>
        <time>2000-01-01T03:42:40.000Z</time>
      </trkpt>
      <trkpt lat="44.97727" lon="2.52357">
        <ele>688</ele>
        <time>2000-01-01T03:42:50.000Z</time>
      </trkpt>
      <trkpt lat="44.97698" lon="2.52367">
        <ele>688</ele>
        <time>2000-01-01T03:43:00.000Z</time>
      </trkpt>
      <trkpt lat="44.97651" lon="2.52385">
        <ele>688</ele>
        <time>2000-01-01T03:43:10.000Z</time>
      </trkpt>
      <trkpt lat="44.97637" lon="2.52356">
        <ele>688</ele>
        <time>2000-01-01T03:43:20.000Z</time>
      </trkpt>
      <trkpt lat="44.97621" lon="2.52325">
        <ele>688</ele>
        <time>2000-01-01T03:43:30.000Z</time>
      </trkpt>
      <trkpt lat="44.9761" lon="2.52289">
        <ele>687</ele>
        <time>2000-01-01T03:43:40.000Z</time>
      </trkpt>
      <trkpt lat="44.97595" lon="2.52239">
        <ele>687</ele>
        <time>2000-01-01T03:43:50.000Z</time>
      </trkpt>
      <trkpt lat="44.97569" lon="2.52215">
        <ele>687</ele>
        <time>2000-01-01T03:44:00.000Z</time>
      </trkpt>
      <trkpt lat="44.97518" lon="2.52168">
        <ele>687</ele>
        <time>2000-01-01T03:44:10.000Z</time>
      </trkpt>
      <trkpt lat="44.97493" lon="2.52188">
        <ele>687</ele>
        <time>2000-01-01T03:44:20.000Z</time>
      </trkpt>
      <trkpt lat="44.97453" lon="2.5222">
        <ele>688</ele>
        <time>2000-01-01T03:44:30.000Z</time>
      </trkpt>
      <trkpt lat="44.97437" lon="2.52248">
        <ele>689</ele>
        <time>2000-01-01T03:44:40.000Z</time>
      </trkpt>
      <trkpt lat="44.97419" lon="2.52281">
        <ele>689</ele>
        <time>2000-01-01T03:44:50.000Z</time>
      </trkpt>
      <trkpt lat="44.97386" lon="2.52296">
        <ele>691</ele>
        <time>2000-01-01T03:45:00.000Z</time>
      </trkpt>
      <trkpt lat="44.97362" lon="2.52275">
        <ele>692</ele>
        <time>2000-01-01T03:45:10.000Z</time>
      </trkpt>
      <trkpt lat="44.97327" lon="2.52245">
        <ele>693</ele>
        <time>2000-01-01T03:45:20.000Z</time>
      </trkpt>
      <trkpt lat="44.97311" lon="2.52206">
        <ele>693</ele>
        <time>2000-01-01T03:45:30.000Z</time>
      </trkpt>
      <trkpt lat="44.97294" lon="2.52168">
        <ele>694</ele>
        <time>2000-01-01T03:45:40.000Z</time>
      </trkpt>
      <trkpt lat="44.97278" lon="2.52129">
        <ele>694</ele>
        <time>2000-01-01T03:45:50.000Z</time>
      </trkpt>
      <trkpt lat="44.97245" lon="2.52094">
        <ele>697</ele>
        <time>2000-01-01T03:46:00.000Z</time>
      </trkpt>
      <trkpt lat="44.97213" lon="2.52059">
        <ele>700</ele>
        <time>2000-01-01T03:46:10.000Z</time>
      </trkpt>
      <trkpt lat="44.97181" lon="2.52024">
        <ele>708</ele>
        <time>2000-01-01T03:46:20.000Z</time>
      </trkpt>
      <trkpt lat="44.97148" lon="2.51989">
        <ele>711</ele>
        <time>2000-01-01T03:46:30.000Z</time>
      </trkpt>
      <trkpt lat="44.97116" lon="2.51954">
        <ele>713</ele>
        <time>2000-01-01T03:46:40.000Z</time>
      </trkpt>
      <trkpt lat="44.97052" lon="2.51886">
        <ele>723</ele>
        <time>2000-01-01T03:46:50.000Z</time>
      </trkpt>
      <trkpt lat="44.97027" lon="2.51848">
        <ele>729</ele>
        <time>2000-01-01T03:47:00.000Z</time>
      </trkpt>
      <trkpt lat="44.97002" lon="2.5181">
        <ele>729</ele>
        <time>2000-01-01T03:47:10.000Z</time>
      </trkpt>
      <trkpt lat="44.96977" lon="2.51772">
        <ele>733</ele>
        <time>2000-01-01T03:47:20.000Z</time>
      </trkpt>
      <trkpt lat="44.96944" lon="2.51721">
        <ele>737</ele>
        <time>2000-01-01T03:47:30.000Z</time>
      </trkpt>
      <trkpt lat="44.96917" lon="2.51678">
        <ele>744</ele>
        <time>2000-01-01T03:47:40.000Z</time>
      </trkpt>
      <trkpt lat="44.96889" lon="2.51635">
        <ele>749</ele>
        <time>2000-01-01T03:47:50.000Z</time>
      </trkpt>
      <trkpt lat="44.96862" lon="2.51591">
        <ele>753</ele>
        <time>2000-01-01T03:48:00.000Z</time>
      </trkpt>
      <trkpt lat="44.96834" lon="2.51548">
        <ele>753</ele>
        <time>2000-01-01T03:48:10.000Z</time>
      </trkpt>
      <trkpt lat="44.96807" lon="2.51505">
        <ele>755</ele>
        <time>2000-01-01T03:48:20.000Z</time>
      </trkpt>
      <trkpt lat="44.96779" lon="2.51462">
        <ele>759</ele>
        <time>2000-01-01T03:48:30.000Z</time>
      </trkpt>
      <trkpt lat="44.96745" lon="2.51408">
        <ele>764</ele>
        <time>2000-01-01T03:48:40.000Z</time>
      </trkpt>
      <trkpt lat="44.96729" lon="2.51368">
        <ele>766</ele>
        <time>2000-01-01T03:48:50.000Z</time>
      </trkpt>
      <trkpt lat="44.96713" lon="2.51328">
        <ele>766</ele>
        <time>2000-01-01T03:49:00.000Z</time>
      </trkpt>
      <trkpt lat="44.96695" lon="2.51282">
        <ele>766</ele>
        <time>2000-01-01T03:49:10.000Z</time>
      </trkpt>
      <trkpt lat="44.96686" lon="2.51235">
        <ele>764</ele>
        <time>2000-01-01T03:49:20.000Z</time>
      </trkpt>
      <trkpt lat="44.96677" lon="2.51189">
        <ele>763</ele>
        <time>2000-01-01T03:49:30.000Z</time>
      </trkpt>
      <trkpt lat="44.96664" lon="2.51117">
        <ele>756</ele>
        <time>2000-01-01T03:49:40.000Z</time>
      </trkpt>
      <trkpt lat="44.96672" lon="2.51068">
        <ele>750</ele>
        <time>2000-01-01T03:49:50.000Z</time>
      </trkpt>
      <trkpt lat="44.96681" lon="2.51019">
        <ele>744</ele>
        <time>2000-01-01T03:50:00.000Z</time>
      </trkpt>
      <trkpt lat="44.96697" lon="2.50923">
        <ele>734</ele>
        <time>2000-01-01T03:50:10.000Z</time>
      </trkpt>
      <trkpt lat="44.96693" lon="2.50881">
        <ele>729</ele>
        <time>2000-01-01T03:50:20.000Z</time>
      </trkpt>
      <trkpt lat="44.96685" lon="2.50807">
        <ele>722</ele>
        <time>2000-01-01T03:50:30.000Z</time>
      </trkpt>
      <trkpt lat="44.96672" lon="2.50767">
        <ele>719</ele>
        <time>2000-01-01T03:50:40.000Z</time>
      </trkpt>
      <trkpt lat="44.96646" lon="2.50691">
        <ele>712</ele>
        <time>2000-01-01T03:50:50.000Z</time>
      </trkpt>
      <trkpt lat="44.96644" lon="2.50641">
        <ele>706</ele>
        <time>2000-01-01T03:51:00.000Z</time>
      </trkpt>
      <trkpt lat="44.96641" lon="2.50591">
        <ele>701</ele>
        <time>2000-01-01T03:51:10.000Z</time>
      </trkpt>
      <trkpt lat="44.96637" lon="2.50495">
        <ele>702</ele>
        <time>2000-01-01T03:51:20.000Z</time>
      </trkpt>
      <trkpt lat="44.96619" lon="2.50461">
        <ele>704</ele>
        <time>2000-01-01T03:51:30.000Z</time>
      </trkpt>
      <trkpt lat="44.96589" lon="2.50405">
        <ele>708</ele>
        <time>2000-01-01T03:51:40.000Z</time>
      </trkpt>
      <trkpt lat="44.96566" lon="2.50379">
        <ele>711</ele>
        <time>2000-01-01T03:51:50.000Z</time>
      </trkpt>
      <trkpt lat="44.96531" lon="2.50338">
        <ele>716</ele>
        <time>2000-01-01T03:52:00.000Z</time>
      </trkpt>
      <trkpt lat="44.96513" lon="2.50302">
        <ele>719</ele>
        <time>2000-01-01T03:52:10.000Z</time>
      </trkpt>
      <trkpt lat="44.96481" lon="2.50235">
        <ele>721</ele>
        <time>2000-01-01T03:52:20.000Z</time>
      </trkpt>
      <trkpt lat="44.96457" lon="2.50204">
        <ele>732</ele>
        <time>2000-01-01T03:52:30.000Z</time>
      </trkpt>
      <trkpt lat="44.96433" lon="2.50172">
        <ele>737</ele>
        <time>2000-01-01T03:52:40.000Z</time>
      </trkpt>
      <trkpt lat="44.96404" lon="2.50135">
        <ele>735</ele>
        <time>2000-01-01T03:52:50.000Z</time>
      </trkpt>
      <trkpt lat="44.96395" lon="2.50083">
        <ele>734</ele>
        <time>2000-01-01T03:53:00.000Z</time>
      </trkpt>
      <trkpt lat="44.96387" lon="2.50031">
        <ele>728</ele>
        <time>2000-01-01T03:53:10.000Z</time>
      </trkpt>
      <trkpt lat="44.96378" lon="2.49979">
        <ele>712</ele>
        <time>2000-01-01T03:53:20.000Z</time>
      </trkpt>
      <trkpt lat="44.96362" lon="2.49882">
        <ele>693</ele>
        <time>2000-01-01T03:53:30.000Z</time>
      </trkpt>
      <trkpt lat="44.9635" lon="2.49838">
        <ele>693</ele>
        <time>2000-01-01T03:53:40.000Z</time>
      </trkpt>
      <trkpt lat="44.96339" lon="2.49794">
        <ele>693</ele>
        <time>2000-01-01T03:53:50.000Z</time>
      </trkpt>
      <trkpt lat="44.96324" lon="2.49737">
        <ele>692</ele>
        <time>2000-01-01T03:54:00.000Z</time>
      </trkpt>
      <trkpt lat="44.96324" lon="2.49697">
        <ele>691</ele>
        <time>2000-01-01T03:54:10.000Z</time>
      </trkpt>
      <trkpt lat="44.96325" lon="2.4964">
        <ele>689</ele>
        <time>2000-01-01T03:54:20.000Z</time>
      </trkpt>
      <trkpt lat="44.96329" lon="2.496">
        <ele>689</ele>
        <time>2000-01-01T03:54:30.000Z</time>
      </trkpt>
      <trkpt lat="44.96334" lon="2.49541">
        <ele>689</ele>
        <time>2000-01-01T03:54:40.000Z</time>
      </trkpt>
      <trkpt lat="44.96344" lon="2.49505">
        <ele>689</ele>
        <time>2000-01-01T03:54:50.000Z</time>
      </trkpt>
      <trkpt lat="44.96357" lon="2.49459">
        <ele>689</ele>
        <time>2000-01-01T03:55:00.000Z</time>
      </trkpt>
      <trkpt lat="44.96355" lon="2.49416">
        <ele>689</ele>
        <time>2000-01-01T03:55:10.000Z</time>
      </trkpt>
      <trkpt lat="44.96352" lon="2.49342">
        <ele>687</ele>
        <time>2000-01-01T03:55:20.000Z</time>
      </trkpt>
      <trkpt lat="44.9634" lon="2.49328">
        <ele>685.7</ele>
        <time>2000-01-01T03:55:30.000Z</time>
      </trkpt>
      <trkpt lat="44.96319" lon="2.49313">
        <ele>685</ele>
        <time>2000-01-01T03:55:40.000Z</time>
      </trkpt>
      <trkpt lat="44.96308" lon="2.49275">
        <ele>685</ele>
        <time>2000-01-01T03:55:50.000Z</time>
      </trkpt>
      <trkpt lat="44.96292" lon="2.49219">
        <ele>682</ele>
        <time>2000-01-01T03:56:00.000Z</time>
      </trkpt>
      <trkpt lat="44.96275" lon="2.49193">
        <ele>682</ele>
        <time>2000-01-01T03:56:10.000Z</time>
      </trkpt>
      <trkpt lat="44.96261" lon="2.49141">
        <ele>682</ele>
        <time>2000-01-01T03:56:20.000Z</time>
      </trkpt>
      <trkpt lat="44.96244" lon="2.49102">
        <ele>682</ele>
        <time>2000-01-01T03:56:30.000Z</time>
      </trkpt>
      <trkpt lat="44.96211" lon="2.49106">
        <ele>683</ele>
        <time>2000-01-01T03:56:40.000Z</time>
      </trkpt>
      <trkpt lat="44.96189" lon="2.49121">
        <ele>683</ele>
        <time>2000-01-01T03:56:50.000Z</time>
      </trkpt>
      <trkpt lat="44.96165" lon="2.49132">
        <ele>686</ele>
        <time>2000-01-01T03:57:00.000Z</time>
      </trkpt>
      <trkpt lat="44.9615" lon="2.49131">
        <ele>684.9</ele>
        <time>2000-01-01T03:57:10.000Z</time>
      </trkpt>
      <trkpt lat="44.96143" lon="2.49128">
        <ele>686</ele>
        <time>2000-01-01T03:57:20.000Z</time>
      </trkpt>
      <trkpt lat="44.96121" lon="2.49145">
        <ele>689</ele>
        <time>2000-01-01T03:57:30.000Z</time>
      </trkpt>
      <trkpt lat="44.96117" lon="2.49153">
        <ele>688.1</ele>
        <time>2000-01-01T03:57:40.000Z</time>
      </trkpt>
      <trkpt lat="44.96107" lon="2.49162">
        <ele>689.9</ele>
        <time>2000-01-01T03:57:50.000Z</time>
      </trkpt>
      <trkpt lat="44.96104" lon="2.4917">
        <ele>691</ele>
        <time>2000-01-01T03:58:00.000Z</time>
      </trkpt>
      <trkpt lat="44.96099" lon="2.49174">
        <ele>691.8</ele>
        <time>2000-01-01T03:58:10.000Z</time>
      </trkpt>
      <trkpt lat="44.96063" lon="2.49125">
        <ele>695</ele>
        <time>2000-01-01T03:58:20.000Z</time>
      </trkpt>
      <trkpt lat="44.96048" lon="2.49112">
        <ele>697.1</ele>
        <time>2000-01-01T03:58:30.000Z</time>
      </trkpt>
      <trkpt lat="44.96038" lon="2.49093">
        <ele>698</ele>
        <time>2000-01-01T03:58:40.000Z</time>
      </trkpt>
      <trkpt lat="44.96035" lon="2.49072">
        <ele>697</ele>
        <time>2000-01-01T03:58:50.000Z</time>
      </trkpt>
      <trkpt lat="44.96009" lon="2.49026">
        <ele>701</ele>
        <time>2000-01-01T03:59:00.000Z</time>
      </trkpt>
      <trkpt lat="44.96002" lon="2.49019">
        <ele>700.7</ele>
        <time>2000-01-01T03:59:10.000Z</time>
      </trkpt>
      <trkpt lat="44.95995" lon="2.49015">
        <ele>701.2</ele>
        <time>2000-01-01T03:59:20.000Z</time>
      </trkpt>
      <trkpt lat="44.95965" lon="2.4902">
        <ele>708</ele>
        <time>2000-01-01T03:59:30.000Z</time>
      </trkpt>
      <trkpt lat="44.95948" lon="2.49017">
        <ele>711.3</ele>
        <time>2000-01-01T03:59:40.000Z</time>
      </trkpt>
      <trkpt lat="44.9594" lon="2.49013">
        <ele>710</ele>
        <time>2000-01-01T03:59:50.000Z</time>
      </trkpt>
      <trkpt lat="44.95912" lon="2.49013">
        <ele>715</ele>
        <time>2000-01-01T04:00:00.000Z</time>
      </trkpt>
      <trkpt lat="44.95884" lon="2.49002">
        <ele>719</ele>
        <time>2000-01-01T04:00:10.000Z</time>
      </trkpt>
      <trkpt lat="44.95843" lon="2.48985">
        <ele>722</ele>
        <time>2000-01-01T04:00:20.000Z</time>
      </trkpt>
      <trkpt lat="44.95815" lon="2.48968">
        <ele>725</ele>
        <time>2000-01-01T04:00:30.000Z</time>
      </trkpt>
      <trkpt lat="44.95764" lon="2.48937">
        <ele>731</ele>
        <time>2000-01-01T04:00:40.000Z</time>
      </trkpt>
      <trkpt lat="44.95758" lon="2.4893">
        <ele>730.5</ele>
        <time>2000-01-01T04:00:50.000Z</time>
      </trkpt>
      <trkpt lat="44.95726" lon="2.48906">
        <ele>739</ele>
        <time>2000-01-01T04:01:00.000Z</time>
      </trkpt>
      <trkpt lat="44.95716" lon="2.48893">
        <ele>737</ele>
        <time>2000-01-01T04:01:10.000Z</time>
      </trkpt>
      <trkpt lat="44.95715" lon="2.48883">
        <ele>743</ele>
        <time>2000-01-01T04:01:20.000Z</time>
      </trkpt>
      <trkpt lat="44.95711" lon="2.48877">
        <ele>739.3</ele>
        <time>2000-01-01T04:01:30.000Z</time>
      </trkpt>
      <trkpt lat="44.95708" lon="2.48865">
        <ele>741.3</ele>
        <time>2000-01-01T04:01:40.000Z</time>
      </trkpt>
      <trkpt lat="44.95708" lon="2.48815">
        <ele>744</ele>
        <time>2000-01-01T04:01:50.000Z</time>
      </trkpt>
      <trkpt lat="44.95696" lon="2.48777">
        <ele>745</ele>
        <time>2000-01-01T04:02:00.000Z</time>
      </trkpt>
      <trkpt lat="44.95658" lon="2.48739">
        <ele>751</ele>
        <time>2000-01-01T04:02:10.000Z</time>
      </trkpt>
      <trkpt lat="44.95625" lon="2.48732">
        <ele>755</ele>
        <time>2000-01-01T04:02:20.000Z</time>
      </trkpt>
      <trkpt lat="44.95585" lon="2.48735">
        <ele>760</ele>
        <time>2000-01-01T04:02:30.000Z</time>
      </trkpt>
      <trkpt lat="44.95571" lon="2.48721">
        <ele>760.2</ele>
        <time>2000-01-01T04:02:40.000Z</time>
      </trkpt>
      <trkpt lat="44.95459" lon="2.48636">
        <ele>765</ele>
        <time>2000-01-01T04:02:50.000Z</time>
      </trkpt>
      <trkpt lat="44.95438" lon="2.48616">
        <ele>766</ele>
        <time>2000-01-01T04:03:00.000Z</time>
      </trkpt>
      <trkpt lat="44.95409" lon="2.48601">
        <ele>766</ele>
        <time>2000-01-01T04:03:10.000Z</time>
      </trkpt>
      <trkpt lat="44.95355" lon="2.48573">
        <ele>766</ele>
        <time>2000-01-01T04:03:20.000Z</time>
      </trkpt>
      <trkpt lat="44.95329" lon="2.48556">
        <ele>767</ele>
        <time>2000-01-01T04:03:30.000Z</time>
      </trkpt>
      <trkpt lat="44.9529" lon="2.4853">
        <ele>768</ele>
        <time>2000-01-01T04:03:40.000Z</time>
      </trkpt>
      <trkpt lat="44.95274" lon="2.48502">
        <ele>771</ele>
        <time>2000-01-01T04:03:50.000Z</time>
      </trkpt>
      <trkpt lat="44.95245" lon="2.48466">
        <ele>778</ele>
        <time>2000-01-01T04:04:00.000Z</time>
      </trkpt>
      <trkpt lat="44.95204" lon="2.48436">
        <ele>788</ele>
        <time>2000-01-01T04:04:10.000Z</time>
      </trkpt>
      <trkpt lat="44.95175" lon="2.48425">
        <ele>793</ele>
        <time>2000-01-01T04:04:20.000Z</time>
      </trkpt>
      <trkpt lat="44.95145" lon="2.48405">
        <ele>793</ele>
        <time>2000-01-01T04:04:30.000Z</time>
      </trkpt>
      <trkpt lat="44.95122" lon="2.48399">
        <ele>794</ele>
        <time>2000-01-01T04:04:40.000Z</time>
      </trkpt>
      <trkpt lat="44.95111" lon="2.48411">
        <ele>800.2</ele>
        <time>2000-01-01T04:04:50.000Z</time>
      </trkpt>
      <trkpt lat="44.95097" lon="2.48437">
        <ele>794</ele>
        <time>2000-01-01T04:05:00.000Z</time>
      </trkpt>
      <trkpt lat="44.95076" lon="2.48469">
        <ele>796</ele>
        <time>2000-01-01T04:05:10.000Z</time>
      </trkpt>
      <trkpt lat="44.95063" lon="2.48483">
        <ele>793.2</ele>
        <time>2000-01-01T04:05:20.000Z</time>
      </trkpt>
      <trkpt lat="44.9505" lon="2.48507">
        <ele>798</ele>
        <time>2000-01-01T04:05:30.000Z</time>
      </trkpt>
      <trkpt lat="44.95038" lon="2.48523">
        <ele>797.8</ele>
        <time>2000-01-01T04:05:40.000Z</time>
      </trkpt>
      <trkpt lat="44.9501" lon="2.48531">
        <ele>812</ele>
        <time>2000-01-01T04:05:50.000Z</time>
      </trkpt>
      <trkpt lat="44.94983" lon="2.48528">
        <ele>818</ele>
        <time>2000-01-01T04:06:00.000Z</time>
      </trkpt>
      <trkpt lat="44.94946" lon="2.48524">
        <ele>820</ele>
        <time>2000-01-01T04:06:10.000Z</time>
      </trkpt>
      <trkpt lat="44.94931" lon="2.48511">
        <ele>823</ele>
        <time>2000-01-01T04:06:20.000Z</time>
      </trkpt>
      <trkpt lat="44.94918" lon="2.48491">
        <ele>820</ele>
        <time>2000-01-01T04:06:30.000Z</time>
      </trkpt>
      <trkpt lat="44.949" lon="2.4847">
        <ele>820</ele>
        <time>2000-01-01T04:06:40.000Z</time>
      </trkpt>
      <trkpt lat="44.94874" lon="2.48512">
        <ele>826</ele>
        <time>2000-01-01T04:06:50.000Z</time>
      </trkpt>
      <trkpt lat="44.94846" lon="2.48517">
        <ele>827</ele>
        <time>2000-01-01T04:07:00.000Z</time>
      </trkpt>
      <trkpt lat="44.94804" lon="2.48524">
        <ele>827</ele>
        <time>2000-01-01T04:07:10.000Z</time>
      </trkpt>
      <trkpt lat="44.94781" lon="2.48537">
        <ele>827</ele>
        <time>2000-01-01T04:07:20.000Z</time>
      </trkpt>
      <trkpt lat="44.94758" lon="2.48551">
        <ele>827</ele>
        <time>2000-01-01T04:07:30.000Z</time>
      </trkpt>
      <trkpt lat="44.94737" lon="2.4857">
        <ele>829</ele>
        <time>2000-01-01T04:07:40.000Z</time>
      </trkpt>
      <trkpt lat="44.94713" lon="2.48592">
        <ele>833</ele>
        <time>2000-01-01T04:07:50.000Z</time>
      </trkpt>
      <trkpt lat="44.94672" lon="2.48619">
        <ele>834</ele>
        <time>2000-01-01T04:08:00.000Z</time>
      </trkpt>
      <trkpt lat="44.94658" lon="2.48652">
        <ele>836</ele>
        <time>2000-01-01T04:08:10.000Z</time>
      </trkpt>
      <trkpt lat="44.94638" lon="2.48697">
        <ele>841</ele>
        <time>2000-01-01T04:08:20.000Z</time>
      </trkpt>
      <trkpt lat="44.94597" lon="2.4868">
        <ele>842</ele>
        <time>2000-01-01T04:08:30.000Z</time>
      </trkpt>
      <trkpt lat="44.94573" lon="2.48674">
        <ele>844</ele>
        <time>2000-01-01T04:08:40.000Z</time>
      </trkpt>
      <trkpt lat="44.9455" lon="2.48668">
        <ele>844</ele>
        <time>2000-01-01T04:08:50.000Z</time>
      </trkpt>
      <trkpt lat="44.9452" lon="2.4864">
        <ele>844</ele>
        <time>2000-01-01T04:09:00.000Z</time>
      </trkpt>
      <trkpt lat="44.94478" lon="2.48618">
        <ele>844</ele>
        <time>2000-01-01T04:09:10.000Z</time>
      </trkpt>
      <trkpt lat="44.94448" lon="2.48607">
        <ele>846</ele>
        <time>2000-01-01T04:09:20.000Z</time>
      </trkpt>
      <trkpt lat="44.94423" lon="2.48602">
        <ele>847</ele>
        <time>2000-01-01T04:09:30.000Z</time>
      </trkpt>
      <trkpt lat="44.94396" lon="2.48596">
        <ele>849</ele>
        <time>2000-01-01T04:09:40.000Z</time>
      </trkpt>
      <trkpt lat="44.94354" lon="2.48578">
        <ele>852</ele>
        <time>2000-01-01T04:09:50.000Z</time>
      </trkpt>
      <trkpt lat="44.94311" lon="2.48565">
        <ele>854</ele>
        <time>2000-01-01T04:10:00.000Z</time>
      </trkpt>
      <trkpt lat="44.94277" lon="2.48565">
        <ele>856</ele>
        <time>2000-01-01T04:10:10.000Z</time>
      </trkpt>
      <trkpt lat="44.9423" lon="2.48557">
        <ele>858</ele>
        <time>2000-01-01T04:10:20.000Z</time>
      </trkpt>
      <trkpt lat="44.94206" lon="2.48548">
        <ele>859</ele>
        <time>2000-01-01T04:10:30.000Z</time>
      </trkpt>
      <trkpt lat="44.94182" lon="2.48539">
        <ele>859</ele>
        <time>2000-01-01T04:10:40.000Z</time>
      </trkpt>
      <trkpt lat="44.94159" lon="2.48518">
        <ele>859</ele>
        <time>2000-01-01T04:10:50.000Z</time>
      </trkpt>
      <trkpt lat="44.94147" lon="2.48499">
        <ele>859</ele>
        <time>2000-01-01T04:11:00.000Z</time>
      </trkpt>
      <trkpt lat="44.94133" lon="2.48495">
        <ele>859</ele>
        <time>2000-01-01T04:11:10.000Z</time>
      </trkpt>
      <trkpt lat="44.94122" lon="2.48474">
        <ele>859</ele>
        <time>2000-01-01T04:11:20.000Z</time>
      </trkpt>
      <trkpt lat="44.94076" lon="2.48404">
        <ele>857</ele>
        <time>2000-01-01T04:11:30.000Z</time>
      </trkpt>
      <trkpt lat="44.94051" lon="2.48379">
        <ele>856</ele>
        <time>2000-01-01T04:11:40.000Z</time>
      </trkpt>
      <trkpt lat="44.94031" lon="2.48375">
        <ele>856</ele>
        <time>2000-01-01T04:11:50.000Z</time>
      </trkpt>
      <trkpt lat="44.94012" lon="2.48383">
        <ele>855</ele>
        <time>2000-01-01T04:12:00.000Z</time>
      </trkpt>
      <trkpt lat="44.93998" lon="2.48354">
        <ele>852</ele>
        <time>2000-01-01T04:12:10.000Z</time>
      </trkpt>
      <trkpt lat="44.93983" lon="2.48323">
        <ele>851</ele>
        <time>2000-01-01T04:12:20.000Z</time>
      </trkpt>
      <trkpt lat="44.9397" lon="2.4829">
        <ele>850</ele>
        <time>2000-01-01T04:12:30.000Z</time>
      </trkpt>
      <trkpt lat="44.93936" lon="2.48246">
        <ele>847</ele>
        <time>2000-01-01T04:12:40.000Z</time>
      </trkpt>
      <trkpt lat="44.93918" lon="2.48208">
        <ele>845</ele>
        <time>2000-01-01T04:12:50.000Z</time>
      </trkpt>
      <trkpt lat="44.93894" lon="2.48166">
        <ele>843</ele>
        <time>2000-01-01T04:13:00.000Z</time>
      </trkpt>
      <trkpt lat="44.93872" lon="2.48111">
        <ele>841</ele>
        <time>2000-01-01T04:13:10.000Z</time>
      </trkpt>
      <trkpt lat="44.9386" lon="2.4808">
        <ele>840</ele>
        <time>2000-01-01T04:13:20.000Z</time>
      </trkpt>
      <trkpt lat="44.93848" lon="2.48047">
        <ele>839</ele>
        <time>2000-01-01T04:13:30.000Z</time>
      </trkpt>
      <trkpt lat="44.93839" lon="2.48008">
        <ele>837</ele>
        <time>2000-01-01T04:13:40.000Z</time>
      </trkpt>
      <trkpt lat="44.93826" lon="2.4795">
        <ele>835</ele>
        <time>2000-01-01T04:13:50.000Z</time>
      </trkpt>
      <trkpt lat="44.93815" lon="2.47917">
        <ele>834</ele>
        <time>2000-01-01T04:14:00.000Z</time>
      </trkpt>
      <trkpt lat="44.93803" lon="2.47877">
        <ele>833</ele>
        <time>2000-01-01T04:14:10.000Z</time>
      </trkpt>
      <trkpt lat="44.93794" lon="2.47836">
        <ele>832</ele>
        <time>2000-01-01T04:14:20.000Z</time>
      </trkpt>
      <trkpt lat="44.93776" lon="2.47788">
        <ele>832</ele>
        <time>2000-01-01T04:14:30.000Z</time>
      </trkpt>
      <trkpt lat="44.93763" lon="2.47744">
        <ele>832</ele>
        <time>2000-01-01T04:14:40.000Z</time>
      </trkpt>
      <trkpt lat="44.93757" lon="2.47706">
        <ele>832</ele>
        <time>2000-01-01T04:14:50.000Z</time>
      </trkpt>
      <trkpt lat="44.93745" lon="2.47671">
        <ele>833</ele>
        <time>2000-01-01T04:15:00.000Z</time>
      </trkpt>
      <trkpt lat="44.93718" lon="2.47621">
        <ele>833</ele>
        <time>2000-01-01T04:15:10.000Z</time>
      </trkpt>
      <trkpt lat="44.93709" lon="2.47584">
        <ele>833</ele>
        <time>2000-01-01T04:15:20.000Z</time>
      </trkpt>
      <trkpt lat="44.93694" lon="2.47548">
        <ele>832</ele>
        <time>2000-01-01T04:15:30.000Z</time>
      </trkpt>
      <trkpt lat="44.9367" lon="2.4749">
        <ele>832</ele>
        <time>2000-01-01T04:15:40.000Z</time>
      </trkpt>
      <trkpt lat="44.93656" lon="2.47448">
        <ele>830</ele>
        <time>2000-01-01T04:15:50.000Z</time>
      </trkpt>
      <trkpt lat="44.93637" lon="2.47419">
        <ele>829</ele>
        <time>2000-01-01T04:16:00.000Z</time>
      </trkpt>
      <trkpt lat="44.93612" lon="2.4738">
        <ele>828</ele>
        <time>2000-01-01T04:16:10.000Z</time>
      </trkpt>
      <trkpt lat="44.93583" lon="2.47328">
        <ele>826</ele>
        <time>2000-01-01T04:16:20.000Z</time>
      </trkpt>
      <trkpt lat="44.93559" lon="2.47295">
        <ele>826</ele>
        <time>2000-01-01T04:16:30.000Z</time>
      </trkpt>
      <trkpt lat="44.93542" lon="2.47252">
        <ele>825</ele>
        <time>2000-01-01T04:16:40.000Z</time>
      </trkpt>
      <trkpt lat="44.93524" lon="2.47218">
        <ele>823</ele>
        <time>2000-01-01T04:16:50.000Z</time>
      </trkpt>
      <trkpt lat="44.93492" lon="2.4716">
        <ele>820</ele>
        <time>2000-01-01T04:17:00.000Z</time>
      </trkpt>
      <trkpt lat="44.93488" lon="2.47135">
        <ele>819.9</ele>
        <time>2000-01-01T04:17:10.000Z</time>
      </trkpt>
      <trkpt lat="44.93476" lon="2.47105">
        <ele>819</ele>
        <time>2000-01-01T04:17:20.000Z</time>
      </trkpt>
      <trkpt lat="44.93461" lon="2.47085">
        <ele>817</ele>
        <time>2000-01-01T04:17:30.000Z</time>
      </trkpt>
      <trkpt lat="44.93432" lon="2.47075">
        <ele>814</ele>
        <time>2000-01-01T04:17:40.000Z</time>
      </trkpt>
      <trkpt lat="44.93401" lon="2.4707">
        <ele>805</ele>
        <time>2000-01-01T04:17:50.000Z</time>
      </trkpt>
      <trkpt lat="44.93367" lon="2.47052">
        <ele>794</ele>
        <time>2000-01-01T04:18:00.000Z</time>
      </trkpt>
      <trkpt lat="44.93344" lon="2.47025">
        <ele>791</ele>
        <time>2000-01-01T04:18:10.000Z</time>
      </trkpt>
      <trkpt lat="44.93325" lon="2.46993">
        <ele>789</ele>
        <time>2000-01-01T04:18:20.000Z</time>
      </trkpt>
      <trkpt lat="44.93294" lon="2.4694">
        <ele>786</ele>
        <time>2000-01-01T04:18:30.000Z</time>
      </trkpt>
      <trkpt lat="44.93282" lon="2.46908">
        <ele>785</ele>
        <time>2000-01-01T04:18:40.000Z</time>
      </trkpt>
      <trkpt lat="44.93277" lon="2.46876">
        <ele>784</ele>
        <time>2000-01-01T04:18:50.000Z</time>
      </trkpt>
      <trkpt lat="44.93254" lon="2.46849">
        <ele>780</ele>
        <time>2000-01-01T04:19:00.000Z</time>
      </trkpt>
      <trkpt lat="44.93214" lon="2.46803">
        <ele>773</ele>
        <time>2000-01-01T04:19:10.000Z</time>
      </trkpt>
      <trkpt lat="44.93187" lon="2.46763">
        <ele>769</ele>
        <time>2000-01-01T04:19:20.000Z</time>
      </trkpt>
      <trkpt lat="44.93164" lon="2.46743">
        <ele>767</ele>
        <time>2000-01-01T04:19:30.000Z</time>
      </trkpt>
      <trkpt lat="44.93163" lon="2.46701">
        <ele>767</ele>
        <time>2000-01-01T04:19:40.000Z</time>
      </trkpt>
      <trkpt lat="44.93157" lon="2.46662">
        <ele>766</ele>
        <time>2000-01-01T04:19:50.000Z</time>
      </trkpt>
      <trkpt lat="44.93149" lon="2.46605">
        <ele>764</ele>
        <time>2000-01-01T04:20:00.000Z</time>
      </trkpt>
      <trkpt lat="44.93146" lon="2.4654">
        <ele>762</ele>
        <time>2000-01-01T04:20:10.000Z</time>
      </trkpt>
      <trkpt lat="44.93161" lon="2.46542">
        <ele>759.7</ele>
        <time>2000-01-01T04:20:20.000Z</time>
      </trkpt>
      <trkpt lat="44.93168" lon="2.46518">
        <ele>758</ele>
        <time>2000-01-01T04:20:30.000Z</time>
      </trkpt>
      <trkpt lat="44.93172" lon="2.46472">
        <ele>754</ele>
        <time>2000-01-01T04:20:40.000Z</time>
      </trkpt>
      <trkpt lat="44.93169" lon="2.4644">
        <ele>753</ele>
        <time>2000-01-01T04:20:50.000Z</time>
      </trkpt>
      <trkpt lat="44.93163" lon="2.46419">
        <ele>752</ele>
        <time>2000-01-01T04:21:00.000Z</time>
      </trkpt>
      <trkpt lat="44.93167" lon="2.46402">
        <ele>751</ele>
        <time>2000-01-01T04:21:10.000Z</time>
      </trkpt>
      <trkpt lat="44.93172" lon="2.46395">
        <ele>749</ele>
        <time>2000-01-01T04:21:20.000Z</time>
      </trkpt>
      <trkpt lat="44.93184" lon="2.46398">
        <ele>747</ele>
        <time>2000-01-01T04:21:30.000Z</time>
      </trkpt>
      <trkpt lat="44.93208" lon="2.4644">
        <ele>745</ele>
        <time>2000-01-01T04:21:40.000Z</time>
      </trkpt>
      <trkpt lat="44.93224" lon="2.46447">
        <ele>740</ele>
        <time>2000-01-01T04:21:50.000Z</time>
      </trkpt>
      <trkpt lat="44.93242" lon="2.46446">
        <ele>737</ele>
        <time>2000-01-01T04:22:00.000Z</time>
      </trkpt>
      <trkpt lat="44.9326" lon="2.46428">
        <ele>734</ele>
        <time>2000-01-01T04:22:10.000Z</time>
      </trkpt>
      <trkpt lat="44.93283" lon="2.46409">
        <ele>731</ele>
        <time>2000-01-01T04:22:20.000Z</time>
      </trkpt>
      <trkpt lat="44.93311" lon="2.46386">
        <ele>729</ele>
        <time>2000-01-01T04:22:30.000Z</time>
      </trkpt>
      <trkpt lat="44.93344" lon="2.46346">
        <ele>726</ele>
        <time>2000-01-01T04:22:40.000Z</time>
      </trkpt>
      <trkpt lat="44.93345" lon="2.46322">
        <ele>723.4</ele>
        <time>2000-01-01T04:22:50.000Z</time>
      </trkpt>
      <trkpt lat="44.93351" lon="2.46295">
        <ele>720</ele>
        <time>2000-01-01T04:23:00.000Z</time>
      </trkpt>
      <trkpt lat="44.93353" lon="2.46261">
        <ele>714</ele>
        <time>2000-01-01T04:23:10.000Z</time>
      </trkpt>
      <trkpt lat="44.93369" lon="2.46237">
        <ele>711</ele>
        <time>2000-01-01T04:23:20.000Z</time>
      </trkpt>
      <trkpt lat="44.93382" lon="2.4621">
        <ele>711</ele>
        <time>2000-01-01T04:23:30.000Z</time>
      </trkpt>
      <trkpt lat="44.93413" lon="2.46179">
        <ele>704</ele>
        <time>2000-01-01T04:23:40.000Z</time>
      </trkpt>
      <trkpt lat="44.93426" lon="2.46151">
        <ele>699</ele>
        <time>2000-01-01T04:23:50.000Z</time>
      </trkpt>
      <trkpt lat="44.93401" lon="2.4614">
        <ele>694</ele>
        <time>2000-01-01T04:24:00.000Z</time>
      </trkpt>
      <trkpt lat="44.93379" lon="2.46119">
        <ele>693</ele>
        <time>2000-01-01T04:24:10.000Z</time>
      </trkpt>
      <trkpt lat="44.93362" lon="2.46082">
        <ele>693</ele>
        <time>2000-01-01T04:24:20.000Z</time>
      </trkpt>
      <trkpt lat="44.93329" lon="2.46009">
        <ele>692</ele>
        <time>2000-01-01T04:24:30.000Z</time>
      </trkpt>
      <trkpt lat="44.93316" lon="2.45987">
        <ele>691</ele>
        <time>2000-01-01T04:24:40.000Z</time>
      </trkpt>
      <trkpt lat="44.93316" lon="2.45932">
        <ele>689</ele>
        <time>2000-01-01T04:24:50.000Z</time>
      </trkpt>
      <trkpt lat="44.93308" lon="2.4589">
        <ele>686</ele>
        <time>2000-01-01T04:25:00.000Z</time>
      </trkpt>
      <trkpt lat="44.93294" lon="2.45812">
        <ele>676</ele>
        <time>2000-01-01T04:25:10.000Z</time>
      </trkpt>
      <trkpt lat="44.93271" lon="2.45788">
        <ele>676</ele>
        <time>2000-01-01T04:25:20.000Z</time>
      </trkpt>
      <trkpt lat="44.93238" lon="2.45753">
        <ele>674</ele>
        <time>2000-01-01T04:25:30.000Z</time>
      </trkpt>
      <trkpt lat="44.93215" lon="2.45735">
        <ele>673</ele>
        <time>2000-01-01T04:25:40.000Z</time>
      </trkpt>
      <trkpt lat="44.93185" lon="2.45712">
        <ele>673</ele>
        <time>2000-01-01T04:25:50.000Z</time>
      </trkpt>
      <trkpt lat="44.93144" lon="2.45689">
        <ele>674</ele>
        <time>2000-01-01T04:26:00.000Z</time>
      </trkpt>
      <trkpt lat="44.9312" lon="2.45671">
        <ele>674</ele>
        <time>2000-01-01T04:26:10.000Z</time>
      </trkpt>
      <trkpt lat="44.93095" lon="2.45635">
        <ele>674</ele>
        <time>2000-01-01T04:26:20.000Z</time>
      </trkpt>
      <trkpt lat="44.93089" lon="2.45582">
        <ele>673</ele>
        <time>2000-01-01T04:26:30.000Z</time>
      </trkpt>
      <trkpt lat="44.93092" lon="2.45549">
        <ele>669</ele>
        <time>2000-01-01T04:26:40.000Z</time>
      </trkpt>
      <trkpt lat="44.93096" lon="2.45515">
        <ele>668</ele>
        <time>2000-01-01T04:26:50.000Z</time>
      </trkpt>
      <trkpt lat="44.93086" lon="2.45468">
        <ele>667</ele>
        <time>2000-01-01T04:27:00.000Z</time>
      </trkpt>
      <trkpt lat="44.93068" lon="2.45437">
        <ele>666</ele>
        <time>2000-01-01T04:27:10.000Z</time>
      </trkpt>
      <trkpt lat="44.93041" lon="2.45392">
        <ele>664</ele>
        <time>2000-01-01T04:27:20.000Z</time>
      </trkpt>
      <trkpt lat="44.93046" lon="2.45354">
        <ele>663</ele>
        <time>2000-01-01T04:27:30.000Z</time>
      </trkpt>
      <trkpt lat="44.93054" lon="2.45301">
        <ele>657</ele>
        <time>2000-01-01T04:27:40.000Z</time>
      </trkpt>
      <trkpt lat="44.93065" lon="2.45262">
        <ele>651</ele>
        <time>2000-01-01T04:27:50.000Z</time>
      </trkpt>
      <trkpt lat="44.93063" lon="2.45241">
        <ele>649.1</ele>
        <time>2000-01-01T04:28:00.000Z</time>
      </trkpt>
      <trkpt lat="44.93037" lon="2.45213">
        <ele>651</ele>
        <time>2000-01-01T04:28:10.000Z</time>
      </trkpt>
      <trkpt lat="44.93019" lon="2.45219">
        <ele>650.4</ele>
        <time>2000-01-01T04:28:20.000Z</time>
      </trkpt>
      <trkpt lat="44.92998" lon="2.45212">
        <ele>649</ele>
        <time>2000-01-01T04:28:30.000Z</time>
      </trkpt>
      <trkpt lat="44.92969" lon="2.45189">
        <ele>648</ele>
        <time>2000-01-01T04:28:40.000Z</time>
      </trkpt>
      <trkpt lat="44.92939" lon="2.45166">
        <ele>646</ele>
        <time>2000-01-01T04:28:50.000Z</time>
      </trkpt>
      <trkpt lat="44.92899" lon="2.45135">
        <ele>643</ele>
        <time>2000-01-01T04:29:00.000Z</time>
      </trkpt>
      <trkpt lat="44.92876" lon="2.45107">
        <ele>640</ele>
        <time>2000-01-01T04:29:10.000Z</time>
      </trkpt>
      <trkpt lat="44.92851" lon="2.45057">
        <ele>635</ele>
        <time>2000-01-01T04:29:20.000Z</time>
      </trkpt>
      <trkpt lat="44.92879" lon="2.45026">
        <ele>631</ele>
        <time>2000-01-01T04:29:30.000Z</time>
      </trkpt>
      <trkpt lat="44.92907" lon="2.44994">
        <ele>627</ele>
        <time>2000-01-01T04:29:40.000Z</time>
      </trkpt>
      <trkpt lat="44.92962" lon="2.44932">
        <ele>621</ele>
        <time>2000-01-01T04:29:50.000Z</time>
      </trkpt>
      <trkpt lat="44.92959" lon="2.44907">
        <ele>617.9</ele>
        <time>2000-01-01T04:30:00.000Z</time>
      </trkpt>
      <trkpt lat="44.92969" lon="2.4485">
        <ele>620</ele>
        <time>2000-01-01T04:30:10.000Z</time>
      </trkpt>
      <trkpt lat="44.92981" lon="2.44814">
        <ele>620</ele>
        <time>2000-01-01T04:30:20.000Z</time>
      </trkpt>
      <trkpt lat="44.92976" lon="2.44781">
        <ele>620</ele>
        <time>2000-01-01T04:30:30.000Z</time>
      </trkpt>
      <trkpt lat="44.92984" lon="2.44746">
        <ele>621</ele>
        <time>2000-01-01T04:30:40.000Z</time>
      </trkpt>
      <trkpt lat="44.92963" lon="2.44727">
        <ele>621</ele>
        <time>2000-01-01T04:30:50.000Z</time>
      </trkpt>
      <trkpt lat="44.92941" lon="2.44703">
        <ele>621</ele>
        <time>2000-01-01T04:31:00.000Z</time>
      </trkpt>
      <trkpt lat="44.92911" lon="2.44669">
        <ele>621</ele>
        <time>2000-01-01T04:31:10.000Z</time>
      </trkpt>
      <trkpt lat="44.92894" lon="2.44657">
        <ele>618</ele>
        <time>2000-01-01T04:31:20.000Z</time>
      </trkpt>
      <trkpt lat="44.92852" lon="2.44612">
        <ele>620</ele>
        <time>2000-01-01T04:31:30.000Z</time>
      </trkpt>
      <trkpt lat="44.92842" lon="2.44584">
        <ele>620</ele>
        <time>2000-01-01T04:31:40.000Z</time>
      </trkpt>
      <trkpt lat="44.92837" lon="2.44528">
        <ele>620</ele>
        <time>2000-01-01T04:31:50.000Z</time>
      </trkpt>
      <trkpt lat="44.92817" lon="2.44479">
        <ele>620</ele>
        <time>2000-01-01T04:32:00.000Z</time>
      </trkpt>
      <trkpt lat="44.92806" lon="2.44461">
        <ele>619.4</ele>
        <time>2000-01-01T04:32:10.000Z</time>
      </trkpt>
      <trkpt lat="44.92791" lon="2.44418">
        <ele>620</ele>
        <time>2000-01-01T04:32:20.000Z</time>
      </trkpt>
      <trkpt lat="44.92765" lon="2.44386">
        <ele>620</ele>
        <time>2000-01-01T04:32:30.000Z</time>
      </trkpt>
      <trkpt lat="44.92737" lon="2.44358">
        <ele>620</ele>
        <time>2000-01-01T04:32:40.000Z</time>
      </trkpt>
      <trkpt lat="44.92709" lon="2.44337">
        <ele>620</ele>
        <time>2000-01-01T04:32:50.000Z</time>
      </trkpt>
      <trkpt lat="44.9268" lon="2.44318">
        <ele>620</ele>
        <time>2000-01-01T04:33:00.000Z</time>
      </trkpt>
      <trkpt lat="44.92651" lon="2.44298">
        <ele>620</ele>
        <time>2000-01-01T04:33:10.000Z</time>
      </trkpt>
      <trkpt lat="44.9262" lon="2.44278">
        <ele>620</ele>
        <time>2000-01-01T04:33:20.000Z</time>
      </trkpt>
      <trkpt lat="44.92581" lon="2.44243">
        <ele>619</ele>
        <time>2000-01-01T04:33:30.000Z</time>
      </trkpt>
      <trkpt lat="44.92558" lon="2.44217">
        <ele>618</ele>
        <time>2000-01-01T04:33:40.000Z</time>
      </trkpt>
      <trkpt lat="44.92541" lon="2.44186">
        <ele>618</ele>
        <time>2000-01-01T04:33:50.000Z</time>
      </trkpt>
      <trkpt lat="44.92524" lon="2.44173">
        <ele>617</ele>
        <time>2000-01-01T04:34:00.000Z</time>
      </trkpt>
      <trkpt lat="44.92512" lon="2.44165">
        <ele>617.4</ele>
        <time>2000-01-01T04:34:10.000Z</time>
      </trkpt>
      <trkpt lat="44.92491" lon="2.44167">
        <ele>616</ele>
        <time>2000-01-01T04:34:20.000Z</time>
      </trkpt>
      <trkpt lat="44.92485" lon="2.44177">
        <ele>616</ele>
        <time>2000-01-01T04:34:30.000Z</time>
      </trkpt>
    </trkseg>
  </trk>
</gpx>